<?xml version="1.0" encoding="UTF-8" standalone="no" ?>
<gpx xmlns="http://www.topografix.com/GPX/1/1" xmlns:xsi="http://www.w3.org/2001/XMLSchema-instance" xsi:schemaLocation="http://www.topografix.com/GPX/1/1 http://www.topografix.com/GPX/1/1/gpx.xsd" version="1.1" creator="VisuGPX - https://www.visugpx.com">
  <metadata>
    <name>Ampus</name>
    <desc><![CDATA[Une randonnée sans grande difficulté avec de très beaux panoramas.
Passage au dolmen de la Colle et l'oppidum de l'Englugi.]]></desc>
  </metadata>
  <wpt lat="43.59434" lon="6.37245">
    <ele>653.8</ele>
    <name><![CDATA[Borie1]]></name>
    <type><![CDATA[user]]></type>
  </wpt>
  <wpt lat="43.60201" lon="6.39013">
    <ele>529.3</ele>
    <name><![CDATA[Puits-1]]></name>
    <type><![CDATA[user]]></type>
  </wpt>
  <wpt lat="43.58567" lon="6.39121">
    <ele>624.1</ele>
    <name><![CDATA[statue de la vierge]]></name>
    <type><![CDATA[user]]></type>
  </wpt>
  <wpt lat="43.58541" lon="6.41531">
    <ele>601.9</ele>
    <name><![CDATA[Panorama]]></name>
  </wpt>
  <wpt lat="43.58645" lon="6.41177">
    <ele>601</ele>
    <name><![CDATA[Panorama]]></name>
  </wpt>
  <wpt lat="43.58486" lon="6.41689">
    <ele>597.5</ele>
    <name><![CDATA[Panaorama]]></name>
  </wpt>
  <wpt lat="43.58459" lon="6.4168">
    <ele>595.3</ele>
    <name><![CDATA[Panorama]]></name>
  </wpt>
  <wpt lat="43.58643" lon="6.38503">
    <ele>641.6</ele>
    <name><![CDATA[Dolmen de la Colle]]></name>
  </wpt>
  <wpt lat="43.58491" lon="6.41331">
    <ele>612.3</ele>
    <name><![CDATA[Oppidum]]></name>
  </wpt>
  <trk>
    <name><![CDATA[Ampus 11km 250m]]></name>
    <extensions>
      <line xmlns="http://www.topografix.com/GPX/gpx_style/0/2">
        <color>0008ff</color>
        <width>4</width>
      </line>
    </extensions>
    <trkseg>
      <trkpt lat="43.58742" lon="6.38385">
        <ele>630.9</ele>
        <time>2022-10-17T12:00:00.000Z</time>
      </trkpt>
      <trkpt lat="43.58736" lon="6.38388">
        <ele>631</ele>
        <time>2022-10-17T12:00:07.595Z</time>
      </trkpt>
      <trkpt lat="43.58724" lon="6.38394">
        <ele>631.4</ele>
        <time>2022-10-17T12:00:25.842Z</time>
      </trkpt>
      <trkpt lat="43.58711" lon="6.38404">
        <ele>631.7</ele>
        <time>2022-10-17T12:00:44.446Z</time>
      </trkpt>
      <trkpt lat="43.58701" lon="6.38409">
        <ele>631.7</ele>
        <time>2022-10-17T12:00:55.287Z</time>
      </trkpt>
      <trkpt lat="43.58692" lon="6.38416">
        <ele>631.9</ele>
        <time>2022-10-17T12:01:08.086Z</time>
      </trkpt>
      <trkpt lat="43.58682" lon="6.38427">
        <ele>633</ele>
        <time>2022-10-17T12:01:37.918Z</time>
      </trkpt>
      <trkpt lat="43.58665" lon="6.38436">
        <ele>633</ele>
        <time>2022-10-17T12:01:56.476Z</time>
      </trkpt>
      <trkpt lat="43.58651" lon="6.38444">
        <ele>633.4</ele>
        <time>2022-10-17T12:02:16.846Z</time>
      </trkpt>
      <trkpt lat="43.58638" lon="6.3845">
        <ele>634.2</ele>
        <time>2022-10-17T12:02:42.693Z</time>
      </trkpt>
      <trkpt lat="43.58625" lon="6.38459">
        <ele>634.8</ele>
        <time>2022-10-17T12:03:06.521Z</time>
      </trkpt>
      <trkpt lat="43.58616" lon="6.38478">
        <ele>635</ele>
        <time>2022-10-17T12:03:25.384Z</time>
      </trkpt>
      <trkpt lat="43.58624" lon="6.3849">
        <ele>637.3</ele>
        <time>2022-10-17T12:04:11.829Z</time>
      </trkpt>
      <trkpt lat="43.58634" lon="6.38491">
        <ele>639.4</ele>
        <time>2022-10-17T12:04:51.248Z</time>
      </trkpt>
      <trkpt lat="43.58646" lon="6.38493">
        <ele>641.3</ele>
        <time>2022-10-17T12:05:38.769Z</time>
      </trkpt>
      <trkpt lat="43.58646" lon="6.385">
        <ele>641.9</ele>
        <time>2022-10-17T12:05:55.133Z</time>
      </trkpt>
      <trkpt lat="43.58644" lon="6.38493">
        <ele>641.1</ele>
        <time>2022-10-17T12:05:56.356Z</time>
      </trkpt>
      <trkpt lat="43.58646" lon="6.385">
        <ele>642</ele>
        <time>2022-10-17T12:06:17.785Z</time>
      </trkpt>
      <trkpt lat="43.58637" lon="6.38493">
        <ele>640.1</ele>
        <time>2022-10-17T12:06:20.103Z</time>
      </trkpt>
      <trkpt lat="43.58626" lon="6.38493">
        <ele>637.9</ele>
        <time>2022-10-17T12:06:22.572Z</time>
      </trkpt>
      <trkpt lat="43.58613" lon="6.38494">
        <ele>635.2</ele>
        <time>2022-10-17T12:06:25.494Z</time>
      </trkpt>
      <trkpt lat="43.58606" lon="6.38481">
        <ele>634.4</ele>
        <time>2022-10-17T12:06:28.127Z</time>
      </trkpt>
      <trkpt lat="43.58607" lon="6.38491">
        <ele>634.6</ele>
        <time>2022-10-17T12:06:38.072Z</time>
      </trkpt>
      <trkpt lat="43.58609" lon="6.38504">
        <ele>634.8</ele>
        <time>2022-10-17T12:06:50.191Z</time>
      </trkpt>
      <trkpt lat="43.58614" lon="6.38517">
        <ele>635</ele>
        <time>2022-10-17T12:07:03.313Z</time>
      </trkpt>
      <trkpt lat="43.58612" lon="6.38533">
        <ele>634.1</ele>
        <time>2022-10-17T12:07:05.952Z</time>
      </trkpt>
      <trkpt lat="43.58617" lon="6.38546">
        <ele>634.9</ele>
        <time>2022-10-17T12:07:28.683Z</time>
      </trkpt>
      <trkpt lat="43.58615" lon="6.38558">
        <ele>633.8</ele>
        <time>2022-10-17T12:07:30.685Z</time>
      </trkpt>
      <trkpt lat="43.58613" lon="6.38572">
        <ele>632.8</ele>
        <time>2022-10-17T12:07:33.004Z</time>
      </trkpt>
      <trkpt lat="43.58611" lon="6.38588">
        <ele>631.8</ele>
        <time>2022-10-17T12:07:35.644Z</time>
      </trkpt>
      <trkpt lat="43.5861" lon="6.38602">
        <ele>631.2</ele>
        <time>2022-10-17T12:07:37.870Z</time>
      </trkpt>
      <trkpt lat="43.5861" lon="6.38616">
        <ele>630.5</ele>
        <time>2022-10-17T12:07:40.146Z</time>
      </trkpt>
      <trkpt lat="43.5861" lon="6.38629">
        <ele>630.1</ele>
        <time>2022-10-17T12:07:42.516Z</time>
      </trkpt>
      <trkpt lat="43.58611" lon="6.38642">
        <ele>629.8</ele>
        <time>2022-10-17T12:07:45.166Z</time>
      </trkpt>
      <trkpt lat="43.58613" lon="6.38657">
        <ele>629.8</ele>
        <time>2022-10-17T12:07:56.427Z</time>
      </trkpt>
      <trkpt lat="43.58615" lon="6.38672">
        <ele>629.3</ele>
        <time>2022-10-17T12:07:59.138Z</time>
      </trkpt>
      <trkpt lat="43.58617" lon="6.38684">
        <ele>628.9</ele>
        <time>2022-10-17T12:08:01.335Z</time>
      </trkpt>
      <trkpt lat="43.58619" lon="6.38702">
        <ele>629.3</ele>
        <time>2022-10-17T12:08:19.951Z</time>
      </trkpt>
      <trkpt lat="43.58615" lon="6.38717">
        <ele>629.1</ele>
        <time>2022-10-17T12:08:23.756Z</time>
      </trkpt>
      <trkpt lat="43.58614" lon="6.38732">
        <ele>629.5</ele>
        <time>2022-10-17T12:08:40.500Z</time>
      </trkpt>
      <trkpt lat="43.58618" lon="6.38747">
        <ele>631.8</ele>
        <time>2022-10-17T12:09:26.020Z</time>
      </trkpt>
      <trkpt lat="43.58613" lon="6.38763">
        <ele>630.4</ele>
        <time>2022-10-17T12:09:28.853Z</time>
      </trkpt>
      <trkpt lat="43.58613" lon="6.38777">
        <ele>630.3</ele>
        <time>2022-10-17T12:09:32.514Z</time>
      </trkpt>
      <trkpt lat="43.58612" lon="6.38793">
        <ele>628.4</ele>
        <time>2022-10-17T12:09:35.125Z</time>
      </trkpt>
      <trkpt lat="43.58616" lon="6.38801">
        <ele>627.4</ele>
        <time>2022-10-17T12:09:36.705Z</time>
      </trkpt>
      <trkpt lat="43.58615" lon="6.38812">
        <ele>625.7</ele>
        <time>2022-10-17T12:09:38.507Z</time>
      </trkpt>
      <trkpt lat="43.5861" lon="6.38812">
        <ele>625.4</ele>
        <time>2022-10-17T12:09:39.590Z</time>
      </trkpt>
      <trkpt lat="43.58615" lon="6.38821">
        <ele>624</ele>
        <time>2022-10-17T12:09:41.434Z</time>
      </trkpt>
      <trkpt lat="43.58627" lon="6.38824">
        <ele>622</ele>
        <time>2022-10-17T12:09:44.170Z</time>
      </trkpt>
      <trkpt lat="43.58634" lon="6.38837">
        <ele>618.2</ele>
        <time>2022-10-17T12:09:46.804Z</time>
      </trkpt>
      <trkpt lat="43.58627" lon="6.38854">
        <ele>616.2</ele>
        <time>2022-10-17T12:09:49.983Z</time>
      </trkpt>
      <trkpt lat="43.58622" lon="6.38869">
        <ele>614.1</ele>
        <time>2022-10-17T12:09:52.667Z</time>
      </trkpt>
      <trkpt lat="43.58607" lon="6.38878">
        <ele>614.1</ele>
        <time>2022-10-17T12:10:09.338Z</time>
      </trkpt>
      <trkpt lat="43.58599" lon="6.38888">
        <ele>614.3</ele>
        <time>2022-10-17T12:10:22.587Z</time>
      </trkpt>
      <trkpt lat="43.58602" lon="6.38899">
        <ele>612.7</ele>
        <time>2022-10-17T12:10:24.498Z</time>
      </trkpt>
      <trkpt lat="43.586" lon="6.38912">
        <ele>611.9</ele>
        <time>2022-10-17T12:10:26.658Z</time>
      </trkpt>
      <trkpt lat="43.58597" lon="6.3893">
        <ele>611.8</ele>
        <time>2022-10-17T12:10:31.647Z</time>
      </trkpt>
      <trkpt lat="43.58591" lon="6.38949">
        <ele>612.8</ele>
        <time>2022-10-17T12:11:01.673Z</time>
      </trkpt>
      <trkpt lat="43.58587" lon="6.38964">
        <ele>612.8</ele>
        <time>2022-10-17T12:11:13.474Z</time>
      </trkpt>
      <trkpt lat="43.58583" lon="6.38978">
        <ele>612.6</ele>
        <time>2022-10-17T12:11:17.011Z</time>
      </trkpt>
      <trkpt lat="43.58577" lon="6.3899">
        <ele>611.9</ele>
        <time>2022-10-17T12:11:19.189Z</time>
      </trkpt>
      <trkpt lat="43.58569" lon="6.39">
        <ele>612</ele>
        <time>2022-10-17T12:11:31.209Z</time>
      </trkpt>
      <trkpt lat="43.58566" lon="6.39012">
        <ele>612.8</ele>
        <time>2022-10-17T12:11:52.843Z</time>
      </trkpt>
      <trkpt lat="43.58559" lon="6.39023">
        <ele>614.2</ele>
        <time>2022-10-17T12:12:33.695Z</time>
      </trkpt>
      <trkpt lat="43.58561" lon="6.3903">
        <ele>614.5</ele>
        <time>2022-10-17T12:12:43.742Z</time>
      </trkpt>
      <trkpt lat="43.58566" lon="6.39039">
        <ele>614.8</ele>
        <time>2022-10-17T12:12:56.324Z</time>
      </trkpt>
      <trkpt lat="43.58568" lon="6.39048">
        <ele>615.6</ele>
        <time>2022-10-17T12:13:18.069Z</time>
      </trkpt>
      <trkpt lat="43.58567" lon="6.39065">
        <ele>617.5</ele>
        <time>2022-10-17T12:14:06.642Z</time>
      </trkpt>
      <trkpt lat="43.58572" lon="6.39076">
        <ele>617.9</ele>
        <time>2022-10-17T12:14:22.347Z</time>
      </trkpt>
      <trkpt lat="43.58577" lon="6.39091">
        <ele>619.7</ele>
        <time>2022-10-17T12:15:09.371Z</time>
      </trkpt>
      <trkpt lat="43.58571" lon="6.39099">
        <ele>621.8</ele>
        <time>2022-10-17T12:15:42.166Z</time>
      </trkpt>
      <trkpt lat="43.58573" lon="6.39107">
        <ele>623.4</ele>
        <time>2022-10-17T12:16:06.267Z</time>
      </trkpt>
      <trkpt lat="43.58571" lon="6.39113">
        <ele>624.2</ele>
        <time>2022-10-17T12:16:25.076Z</time>
      </trkpt>
      <trkpt lat="43.58578" lon="6.39109">
        <ele>624.2</ele>
        <time>2022-10-17T12:16:32.798Z</time>
      </trkpt>
      <trkpt lat="43.5858" lon="6.39113">
        <ele>625</ele>
        <time>2022-10-17T12:16:46.640Z</time>
      </trkpt>
      <trkpt lat="43.58583" lon="6.39123">
        <ele>626.1</ele>
        <time>2022-10-17T12:17:17.464Z</time>
      </trkpt>
      <trkpt lat="43.5859" lon="6.39135">
        <ele>625.5</ele>
        <time>2022-10-17T12:17:20.007Z</time>
      </trkpt>
      <trkpt lat="43.58595" lon="6.39149">
        <ele>624.8</ele>
        <time>2022-10-17T12:17:22.419Z</time>
      </trkpt>
      <trkpt lat="43.58599" lon="6.39163">
        <ele>624.9</ele>
        <time>2022-10-17T12:17:34.550Z</time>
      </trkpt>
      <trkpt lat="43.58604" lon="6.39175">
        <ele>624.8</ele>
        <time>2022-10-17T12:17:38.165Z</time>
      </trkpt>
      <trkpt lat="43.58609" lon="6.39189">
        <ele>624.9</ele>
        <time>2022-10-17T12:17:50.705Z</time>
      </trkpt>
      <trkpt lat="43.58613" lon="6.39203">
        <ele>625</ele>
        <time>2022-10-17T12:18:02.836Z</time>
      </trkpt>
      <trkpt lat="43.58614" lon="6.39218">
        <ele>625.4</ele>
        <time>2022-10-17T12:18:19.580Z</time>
      </trkpt>
      <trkpt lat="43.58616" lon="6.39235">
        <ele>625.4</ele>
        <time>2022-10-17T12:18:32.296Z</time>
      </trkpt>
      <trkpt lat="43.58616" lon="6.39251">
        <ele>625.3</ele>
        <time>2022-10-17T12:18:36.550Z</time>
      </trkpt>
      <trkpt lat="43.58615" lon="6.39267">
        <ele>625.6</ele>
        <time>2022-10-17T12:18:52.075Z</time>
      </trkpt>
      <trkpt lat="43.58616" lon="6.39281">
        <ele>625.8</ele>
        <time>2022-10-17T12:19:04.738Z</time>
      </trkpt>
      <trkpt lat="43.58619" lon="6.39296">
        <ele>626.1</ele>
        <time>2022-10-17T12:19:19.931Z</time>
      </trkpt>
      <trkpt lat="43.58619" lon="6.39311">
        <ele>626.6</ele>
        <time>2022-10-17T12:19:38.804Z</time>
      </trkpt>
      <trkpt lat="43.58619" lon="6.39326">
        <ele>627</ele>
        <time>2022-10-17T12:19:55.513Z</time>
      </trkpt>
      <trkpt lat="43.58617" lon="6.39343">
        <ele>627.4</ele>
        <time>2022-10-17T12:20:13.516Z</time>
      </trkpt>
      <trkpt lat="43.58614" lon="6.39362">
        <ele>627.7</ele>
        <time>2022-10-17T12:20:31.354Z</time>
      </trkpt>
      <trkpt lat="43.58617" lon="6.39377">
        <ele>627.4</ele>
        <time>2022-10-17T12:20:34.681Z</time>
      </trkpt>
      <trkpt lat="43.58619" lon="6.39392">
        <ele>627.3</ele>
        <time>2022-10-17T12:20:38.714Z</time>
      </trkpt>
      <trkpt lat="43.5862" lon="6.39408">
        <ele>627.4</ele>
        <time>2022-10-17T12:20:51.584Z</time>
      </trkpt>
      <trkpt lat="43.5862" lon="6.39424">
        <ele>628</ele>
        <time>2022-10-17T12:21:12.482Z</time>
      </trkpt>
      <trkpt lat="43.5862" lon="6.39436">
        <ele>628.4</ele>
        <time>2022-10-17T12:21:27.580Z</time>
      </trkpt>
      <trkpt lat="43.58625" lon="6.3945">
        <ele>628.4</ele>
        <time>2022-10-17T12:21:39.105Z</time>
      </trkpt>
      <trkpt lat="43.58627" lon="6.39466">
        <ele>629.3</ele>
        <time>2022-10-17T12:22:04.476Z</time>
      </trkpt>
      <trkpt lat="43.58628" lon="6.39481">
        <ele>630.1</ele>
        <time>2022-10-17T12:22:27.430Z</time>
      </trkpt>
      <trkpt lat="43.58632" lon="6.39494">
        <ele>630.4</ele>
        <time>2022-10-17T12:22:41.687Z</time>
      </trkpt>
      <trkpt lat="43.58637" lon="6.39507">
        <ele>630.2</ele>
        <time>2022-10-17T12:22:45.129Z</time>
      </trkpt>
      <trkpt lat="43.5864" lon="6.39521">
        <ele>629.9</ele>
        <time>2022-10-17T12:22:48.193Z</time>
      </trkpt>
      <trkpt lat="43.58645" lon="6.39536">
        <ele>629.5</ele>
        <time>2022-10-17T12:22:51.479Z</time>
      </trkpt>
      <trkpt lat="43.58647" lon="6.3955">
        <ele>629.2</ele>
        <time>2022-10-17T12:22:54.453Z</time>
      </trkpt>
      <trkpt lat="43.58647" lon="6.39565">
        <ele>629.1</ele>
        <time>2022-10-17T12:22:58.410Z</time>
      </trkpt>
      <trkpt lat="43.58651" lon="6.39582">
        <ele>628.7</ele>
        <time>2022-10-17T12:23:02.062Z</time>
      </trkpt>
      <trkpt lat="43.58653" lon="6.39598">
        <ele>627.7</ele>
        <time>2022-10-17T12:23:04.701Z</time>
      </trkpt>
      <trkpt lat="43.58656" lon="6.39616">
        <ele>626.7</ele>
        <time>2022-10-17T12:23:07.704Z</time>
      </trkpt>
      <trkpt lat="43.58662" lon="6.39633">
        <ele>626.5</ele>
        <time>2022-10-17T12:23:12.356Z</time>
      </trkpt>
      <trkpt lat="43.58668" lon="6.39648">
        <ele>626.1</ele>
        <time>2022-10-17T12:23:15.809Z</time>
      </trkpt>
      <trkpt lat="43.58672" lon="6.39662">
        <ele>626.1</ele>
        <time>2022-10-17T12:23:26.921Z</time>
      </trkpt>
      <trkpt lat="43.58674" lon="6.39676">
        <ele>626.6</ele>
        <time>2022-10-17T12:23:45.148Z</time>
      </trkpt>
      <trkpt lat="43.58677" lon="6.39692">
        <ele>627</ele>
        <time>2022-10-17T12:24:02.732Z</time>
      </trkpt>
      <trkpt lat="43.58675" lon="6.39708">
        <ele>627.5</ele>
        <time>2022-10-17T12:24:22.366Z</time>
      </trkpt>
      <trkpt lat="43.58675" lon="6.39725">
        <ele>627.6</ele>
        <time>2022-10-17T12:24:35.926Z</time>
      </trkpt>
      <trkpt lat="43.58678" lon="6.39743">
        <ele>626.7</ele>
        <time>2022-10-17T12:24:38.928Z</time>
      </trkpt>
      <trkpt lat="43.58678" lon="6.39757">
        <ele>626.5</ele>
        <time>2022-10-17T12:24:42.165Z</time>
      </trkpt>
      <trkpt lat="43.58676" lon="6.39773">
        <ele>627</ele>
        <time>2022-10-17T12:25:01.798Z</time>
      </trkpt>
      <trkpt lat="43.5867" lon="6.39791">
        <ele>628.7</ele>
        <time>2022-10-17T12:25:48.179Z</time>
      </trkpt>
      <trkpt lat="43.5867" lon="6.39806">
        <ele>629.3</ele>
        <time>2022-10-17T12:26:08.230Z</time>
      </trkpt>
      <trkpt lat="43.58668" lon="6.39821">
        <ele>629.7</ele>
        <time>2022-10-17T12:26:25.078Z</time>
      </trkpt>
      <trkpt lat="43.58663" lon="6.39838">
        <ele>630.4</ele>
        <time>2022-10-17T12:26:49.187Z</time>
      </trkpt>
      <trkpt lat="43.58658" lon="6.39855">
        <ele>630.3</ele>
        <time>2022-10-17T12:26:54.140Z</time>
      </trkpt>
      <trkpt lat="43.58651" lon="6.39871">
        <ele>631.7</ele>
        <time>2022-10-17T12:27:31.259Z</time>
      </trkpt>
      <trkpt lat="43.58643" lon="6.3989">
        <ele>633.4</ele>
        <time>2022-10-17T12:28:16.445Z</time>
      </trkpt>
      <trkpt lat="43.58637" lon="6.3991">
        <ele>634.2</ele>
        <time>2022-10-17T12:28:44.580Z</time>
      </trkpt>
      <trkpt lat="43.58631" lon="6.39928">
        <ele>634.5</ele>
        <time>2022-10-17T12:29:02.674Z</time>
      </trkpt>
      <trkpt lat="43.58624" lon="6.39945">
        <ele>635.1</ele>
        <time>2022-10-17T12:29:26.265Z</time>
      </trkpt>
      <trkpt lat="43.58622" lon="6.39959">
        <ele>635.1</ele>
        <time>2022-10-17T12:29:36.800Z</time>
      </trkpt>
      <trkpt lat="43.58619" lon="6.39973">
        <ele>635.1</ele>
        <time>2022-10-17T12:29:47.580Z</time>
      </trkpt>
      <trkpt lat="43.58617" lon="6.39986">
        <ele>635.6</ele>
        <time>2022-10-17T12:30:04.958Z</time>
      </trkpt>
      <trkpt lat="43.58615" lon="6.39999">
        <ele>635.9</ele>
        <time>2022-10-17T12:30:18.690Z</time>
      </trkpt>
      <trkpt lat="43.58611" lon="6.40012">
        <ele>636.9</ele>
        <time>2022-10-17T12:30:45.225Z</time>
      </trkpt>
      <trkpt lat="43.58605" lon="6.40025">
        <ele>638</ele>
        <time>2022-10-17T12:31:14.400Z</time>
      </trkpt>
      <trkpt lat="43.586" lon="6.4004">
        <ele>637.7</ele>
        <time>2022-10-17T12:31:17.991Z</time>
      </trkpt>
      <trkpt lat="43.58595" lon="6.40052">
        <ele>637.3</ele>
        <time>2022-10-17T12:31:20.578Z</time>
      </trkpt>
      <trkpt lat="43.5859" lon="6.40063">
        <ele>637</ele>
        <time>2022-10-17T12:31:23.204Z</time>
      </trkpt>
      <trkpt lat="43.58583" lon="6.40074">
        <ele>636.7</ele>
        <time>2022-10-17T12:31:26.279Z</time>
      </trkpt>
      <trkpt lat="43.58573" lon="6.4008">
        <ele>636.6</ele>
        <time>2022-10-17T12:31:30.252Z</time>
      </trkpt>
      <trkpt lat="43.58566" lon="6.40097">
        <ele>636.1</ele>
        <time>2022-10-17T12:31:34.072Z</time>
      </trkpt>
      <trkpt lat="43.58561" lon="6.40111">
        <ele>635.8</ele>
        <time>2022-10-17T12:31:37.413Z</time>
      </trkpt>
      <trkpt lat="43.58556" lon="6.40124">
        <ele>635.5</ele>
        <time>2022-10-17T12:31:40.509Z</time>
      </trkpt>
      <trkpt lat="43.58552" lon="6.40138">
        <ele>635.3</ele>
        <time>2022-10-17T12:31:44.046Z</time>
      </trkpt>
      <trkpt lat="43.58548" lon="6.40153">
        <ele>635.4</ele>
        <time>2022-10-17T12:31:56.861Z</time>
      </trkpt>
      <trkpt lat="43.58547" lon="6.40167">
        <ele>635.3</ele>
        <time>2022-10-17T12:32:00.543Z</time>
      </trkpt>
      <trkpt lat="43.58546" lon="6.40181">
        <ele>635.7</ele>
        <time>2022-10-17T12:32:16.761Z</time>
      </trkpt>
      <trkpt lat="43.5854" lon="6.40197">
        <ele>635.9</ele>
        <time>2022-10-17T12:32:32.235Z</time>
      </trkpt>
      <trkpt lat="43.58543" lon="6.40213">
        <ele>635.3</ele>
        <time>2022-10-17T12:32:35.050Z</time>
      </trkpt>
      <trkpt lat="43.5854" lon="6.4023">
        <ele>634.9</ele>
        <time>2022-10-17T12:32:38.600Z</time>
      </trkpt>
      <trkpt lat="43.58538" lon="6.40247">
        <ele>634.7</ele>
        <time>2022-10-17T12:32:42.762Z</time>
      </trkpt>
      <trkpt lat="43.58536" lon="6.40261">
        <ele>634.3</ele>
        <time>2022-10-17T12:32:45.459Z</time>
      </trkpt>
      <trkpt lat="43.58531" lon="6.40277">
        <ele>633.9</ele>
        <time>2022-10-17T12:32:48.990Z</time>
      </trkpt>
      <trkpt lat="43.58522" lon="6.40294">
        <ele>633.7</ele>
        <time>2022-10-17T12:32:54.269Z</time>
      </trkpt>
      <trkpt lat="43.58516" lon="6.40308">
        <ele>633.4</ele>
        <time>2022-10-17T12:32:57.792Z</time>
      </trkpt>
      <trkpt lat="43.5851" lon="6.40321">
        <ele>632.9</ele>
        <time>2022-10-17T12:33:00.544Z</time>
      </trkpt>
      <trkpt lat="43.58506" lon="6.40332">
        <ele>632.3</ele>
        <time>2022-10-17T12:33:02.545Z</time>
      </trkpt>
      <trkpt lat="43.58496" lon="6.40348">
        <ele>632.5</ele>
        <time>2022-10-17T12:33:20.269Z</time>
      </trkpt>
      <trkpt lat="43.58487" lon="6.40356">
        <ele>633.1</ele>
        <time>2022-10-17T12:33:40.135Z</time>
      </trkpt>
      <trkpt lat="43.58476" lon="6.40371">
        <ele>633.8</ele>
        <time>2022-10-17T12:34:06.864Z</time>
      </trkpt>
      <trkpt lat="43.58469" lon="6.40388">
        <ele>634</ele>
        <time>2022-10-17T12:34:23.447Z</time>
      </trkpt>
      <trkpt lat="43.58455" lon="6.40415">
        <ele>630.4</ele>
        <time>2022-10-17T12:34:28.844Z</time>
      </trkpt>
      <trkpt lat="43.5845" lon="6.40433">
        <ele>628.6</ele>
        <time>2022-10-17T12:34:31.978Z</time>
      </trkpt>
      <trkpt lat="43.58448" lon="6.40449">
        <ele>627.5</ele>
        <time>2022-10-17T12:34:34.618Z</time>
      </trkpt>
      <trkpt lat="43.58445" lon="6.40462">
        <ele>627.1</ele>
        <time>2022-10-17T12:34:37.153Z</time>
      </trkpt>
      <trkpt lat="43.58449" lon="6.40476">
        <ele>627.8</ele>
        <time>2022-10-17T12:34:58.578Z</time>
      </trkpt>
      <trkpt lat="43.58451" lon="6.40491">
        <ele>627.6</ele>
        <time>2022-10-17T12:35:02.172Z</time>
      </trkpt>
      <trkpt lat="43.58451" lon="6.40504">
        <ele>627.4</ele>
        <time>2022-10-17T12:35:05.125Z</time>
      </trkpt>
      <trkpt lat="43.58458" lon="6.40518">
        <ele>627</ele>
        <time>2022-10-17T12:35:08.545Z</time>
      </trkpt>
      <trkpt lat="43.58462" lon="6.40532">
        <ele>626.2</ele>
        <time>2022-10-17T12:35:10.992Z</time>
      </trkpt>
      <trkpt lat="43.58463" lon="6.40543">
        <ele>625.8</ele>
        <time>2022-10-17T12:35:12.884Z</time>
      </trkpt>
      <trkpt lat="43.58467" lon="6.40544">
        <ele>625.4</ele>
        <time>2022-10-17T12:35:13.797Z</time>
      </trkpt>
      <trkpt lat="43.58474" lon="6.40552">
        <ele>624</ele>
        <time>2022-10-17T12:35:15.836Z</time>
      </trkpt>
      <trkpt lat="43.58482" lon="6.40564">
        <ele>623.1</ele>
        <time>2022-10-17T12:35:18.487Z</time>
      </trkpt>
      <trkpt lat="43.58491" lon="6.40571">
        <ele>622.1</ele>
        <time>2022-10-17T12:35:20.806Z</time>
      </trkpt>
      <trkpt lat="43.585" lon="6.40581">
        <ele>621.1</ele>
        <time>2022-10-17T12:35:23.398Z</time>
      </trkpt>
      <trkpt lat="43.58506" lon="6.40593">
        <ele>620.1</ele>
        <time>2022-10-17T12:35:25.769Z</time>
      </trkpt>
      <trkpt lat="43.58513" lon="6.40603">
        <ele>619.4</ele>
        <time>2022-10-17T12:35:28.029Z</time>
      </trkpt>
      <trkpt lat="43.5852" lon="6.40612">
        <ele>618.8</ele>
        <time>2022-10-17T12:35:30.057Z</time>
      </trkpt>
      <trkpt lat="43.58526" lon="6.40621">
        <ele>618.6</ele>
        <time>2022-10-17T12:35:32.793Z</time>
      </trkpt>
      <trkpt lat="43.58531" lon="6.40632">
        <ele>618.4</ele>
        <time>2022-10-17T12:35:35.741Z</time>
      </trkpt>
      <trkpt lat="43.58536" lon="6.40642">
        <ele>618</ele>
        <time>2022-10-17T12:35:37.898Z</time>
      </trkpt>
      <trkpt lat="43.58537" lon="6.40655">
        <ele>617.6</ele>
        <time>2022-10-17T12:35:40.287Z</time>
      </trkpt>
      <trkpt lat="43.58535" lon="6.40669">
        <ele>617.3</ele>
        <time>2022-10-17T12:35:43.260Z</time>
      </trkpt>
      <trkpt lat="43.58536" lon="6.40685">
        <ele>616.3</ele>
        <time>2022-10-17T12:35:45.871Z</time>
      </trkpt>
      <trkpt lat="43.58543" lon="6.40701">
        <ele>615.3</ele>
        <time>2022-10-17T12:35:48.910Z</time>
      </trkpt>
      <trkpt lat="43.58542" lon="6.40716">
        <ele>615.1</ele>
        <time>2022-10-17T12:35:52.450Z</time>
      </trkpt>
      <trkpt lat="43.58542" lon="6.40731">
        <ele>614.8</ele>
        <time>2022-10-17T12:35:55.623Z</time>
      </trkpt>
      <trkpt lat="43.58548" lon="6.40746">
        <ele>614.3</ele>
        <time>2022-10-17T12:35:58.813Z</time>
      </trkpt>
      <trkpt lat="43.58548" lon="6.40764">
        <ele>614.5</ele>
        <time>2022-10-17T12:36:14.275Z</time>
      </trkpt>
      <trkpt lat="43.58542" lon="6.40786">
        <ele>614.5</ele>
        <time>2022-10-17T12:36:31.632Z</time>
      </trkpt>
      <trkpt lat="43.58539" lon="6.40808">
        <ele>614.1</ele>
        <time>2022-10-17T12:36:36.522Z</time>
      </trkpt>
      <trkpt lat="43.58538" lon="6.40822">
        <ele>613.8</ele>
        <time>2022-10-17T12:36:39.441Z</time>
      </trkpt>
      <trkpt lat="43.58535" lon="6.40834">
        <ele>613</ele>
        <time>2022-10-17T12:36:41.505Z</time>
      </trkpt>
      <trkpt lat="43.58526" lon="6.40853">
        <ele>612.1</ele>
        <time>2022-10-17T12:36:45.222Z</time>
      </trkpt>
      <trkpt lat="43.58522" lon="6.40875">
        <ele>612</ele>
        <time>2022-10-17T12:37:00.540Z</time>
      </trkpt>
      <trkpt lat="43.58516" lon="6.40899">
        <ele>611.3</ele>
        <time>2022-10-17T12:37:05.368Z</time>
      </trkpt>
      <trkpt lat="43.58508" lon="6.40923">
        <ele>609.8</ele>
        <time>2022-10-17T12:37:09.663Z</time>
      </trkpt>
      <trkpt lat="43.58505" lon="6.40946">
        <ele>608.8</ele>
        <time>2022-10-17T12:37:13.356Z</time>
      </trkpt>
      <trkpt lat="43.58498" lon="6.40969">
        <ele>608.1</ele>
        <time>2022-10-17T12:37:18.069Z</time>
      </trkpt>
      <trkpt lat="43.58497" lon="6.4099">
        <ele>608</ele>
        <time>2022-10-17T12:37:32.188Z</time>
      </trkpt>
      <trkpt lat="43.58498" lon="6.4101">
        <ele>608</ele>
        <time>2022-10-17T12:37:46.990Z</time>
      </trkpt>
      <trkpt lat="43.58497" lon="6.41027">
        <ele>607.8</ele>
        <time>2022-10-17T12:37:51.104Z</time>
      </trkpt>
      <trkpt lat="43.58491" lon="6.41048">
        <ele>607.6</ele>
        <time>2022-10-17T12:37:56.827Z</time>
      </trkpt>
      <trkpt lat="43.58483" lon="6.41069">
        <ele>606.5</ele>
        <time>2022-10-17T12:38:00.434Z</time>
      </trkpt>
      <trkpt lat="43.5848" lon="6.41081">
        <ele>605.8</ele>
        <time>2022-10-17T12:38:02.497Z</time>
      </trkpt>
      <trkpt lat="43.58479" lon="6.41095">
        <ele>605.1</ele>
        <time>2022-10-17T12:38:04.784Z</time>
      </trkpt>
      <trkpt lat="43.58478" lon="6.41108">
        <ele>604.7</ele>
        <time>2022-10-17T12:38:07.173Z</time>
      </trkpt>
      <trkpt lat="43.58471" lon="6.41129">
        <ele>603.5</ele>
        <time>2022-10-17T12:38:10.931Z</time>
      </trkpt>
      <trkpt lat="43.58462" lon="6.41152">
        <ele>602.2</ele>
        <time>2022-10-17T12:38:15.181Z</time>
      </trkpt>
      <trkpt lat="43.58457" lon="6.41171">
        <ele>600.7</ele>
        <time>2022-10-17T12:38:18.467Z</time>
      </trkpt>
      <trkpt lat="43.58452" lon="6.41188">
        <ele>599.1</ele>
        <time>2022-10-17T12:38:21.450Z</time>
      </trkpt>
      <trkpt lat="43.58444" lon="6.41205">
        <ele>597.4</ele>
        <time>2022-10-17T12:38:24.746Z</time>
      </trkpt>
      <trkpt lat="43.58436" lon="6.41223">
        <ele>597.1</ele>
        <time>2022-10-17T12:38:29.634Z</time>
      </trkpt>
      <trkpt lat="43.58433" lon="6.4124">
        <ele>596.3</ele>
        <time>2022-10-17T12:38:32.312Z</time>
      </trkpt>
      <trkpt lat="43.58428" lon="6.41256">
        <ele>594.8</ele>
        <time>2022-10-17T12:38:35.145Z</time>
      </trkpt>
      <trkpt lat="43.58423" lon="6.41268">
        <ele>593.2</ele>
        <time>2022-10-17T12:38:37.395Z</time>
      </trkpt>
      <trkpt lat="43.58419" lon="6.4129">
        <ele>591.6</ele>
        <time>2022-10-17T12:38:41.082Z</time>
      </trkpt>
      <trkpt lat="43.58418" lon="6.41311">
        <ele>591.7</ele>
        <time>2022-10-17T12:38:57.614Z</time>
      </trkpt>
      <trkpt lat="43.58417" lon="6.4132">
        <ele>591.7</ele>
        <time>2022-10-17T12:39:04.337Z</time>
      </trkpt>
      <trkpt lat="43.58417" lon="6.41335">
        <ele>592.2</ele>
        <time>2022-10-17T12:39:23.210Z</time>
      </trkpt>
      <trkpt lat="43.58418" lon="6.41352">
        <ele>592.5</ele>
        <time>2022-10-17T12:39:39.406Z</time>
      </trkpt>
      <trkpt lat="43.58421" lon="6.41369">
        <ele>593.3</ele>
        <time>2022-10-17T12:40:04.120Z</time>
      </trkpt>
      <trkpt lat="43.58426" lon="6.41379">
        <ele>595</ele>
        <time>2022-10-17T12:40:38.724Z</time>
      </trkpt>
      <trkpt lat="43.58427" lon="6.41394">
        <ele>595</ele>
        <time>2022-10-17T12:40:49.846Z</time>
      </trkpt>
      <trkpt lat="43.5843" lon="6.41412">
        <ele>594.5</ele>
        <time>2022-10-17T12:40:53.382Z</time>
      </trkpt>
      <trkpt lat="43.58431" lon="6.41428">
        <ele>594</ele>
        <time>2022-10-17T12:40:56.297Z</time>
      </trkpt>
      <trkpt lat="43.5844" lon="6.41443">
        <ele>596.3</ele>
        <time>2022-10-17T12:41:51.767Z</time>
      </trkpt>
      <trkpt lat="43.58447" lon="6.4146">
        <ele>597.9</ele>
        <time>2022-10-17T12:42:34.738Z</time>
      </trkpt>
      <trkpt lat="43.58452" lon="6.41474">
        <ele>598.1</ele>
        <time>2022-10-17T12:42:48.492Z</time>
      </trkpt>
      <trkpt lat="43.58454" lon="6.41485">
        <ele>598.4</ele>
        <time>2022-10-17T12:43:01.074Z</time>
      </trkpt>
      <trkpt lat="43.58453" lon="6.41495">
        <ele>598.2</ele>
        <time>2022-10-17T12:43:03.216Z</time>
      </trkpt>
      <trkpt lat="43.58452" lon="6.41506">
        <ele>598.9</ele>
        <time>2022-10-17T12:43:22.136Z</time>
      </trkpt>
      <trkpt lat="43.58451" lon="6.41519">
        <ele>600.8</ele>
        <time>2022-10-17T12:43:59.366Z</time>
      </trkpt>
      <trkpt lat="43.58447" lon="6.41532">
        <ele>601.4</ele>
        <time>2022-10-17T12:44:18.696Z</time>
      </trkpt>
      <trkpt lat="43.5844" lon="6.41551">
        <ele>599.5</ele>
        <time>2022-10-17T12:44:22.161Z</time>
      </trkpt>
      <trkpt lat="43.58436" lon="6.41568">
        <ele>597.5</ele>
        <time>2022-10-17T12:44:25.067Z</time>
      </trkpt>
      <trkpt lat="43.58433" lon="6.41586">
        <ele>595.6</ele>
        <time>2022-10-17T12:44:28.070Z</time>
      </trkpt>
      <trkpt lat="43.58438" lon="6.41599">
        <ele>596.8</ele>
        <time>2022-10-17T12:45:00.269Z</time>
      </trkpt>
      <trkpt lat="43.58445" lon="6.4161">
        <ele>599.1</ele>
        <time>2022-10-17T12:45:41.968Z</time>
      </trkpt>
      <trkpt lat="43.5845" lon="6.41623">
        <ele>599.5</ele>
        <time>2022-10-17T12:45:58.525Z</time>
      </trkpt>
      <trkpt lat="43.58454" lon="6.41637">
        <ele>599.7</ele>
        <time>2022-10-17T12:46:11.881Z</time>
      </trkpt>
      <trkpt lat="43.58454" lon="6.41652">
        <ele>598.9</ele>
        <time>2022-10-17T12:46:14.320Z</time>
      </trkpt>
      <trkpt lat="43.58452" lon="6.41663">
        <ele>597.6</ele>
        <time>2022-10-17T12:46:16.164Z</time>
      </trkpt>
      <trkpt lat="43.58453" lon="6.4167">
        <ele>596.4</ele>
        <time>2022-10-17T12:46:17.323Z</time>
      </trkpt>
      <trkpt lat="43.5846" lon="6.41675">
        <ele>597.1</ele>
        <time>2022-10-17T12:46:36.162Z</time>
      </trkpt>
      <trkpt lat="43.58464" lon="6.41682">
        <ele>597.3</ele>
        <time>2022-10-17T12:46:45.351Z</time>
      </trkpt>
      <trkpt lat="43.58468" lon="6.41682">
        <ele>599.4</ele>
        <time>2022-10-17T12:47:01.078Z</time>
      </trkpt>
      <trkpt lat="43.58474" lon="6.41683">
        <ele>600.8</ele>
        <time>2022-10-17T12:47:24.838Z</time>
      </trkpt>
      <trkpt lat="43.58481" lon="6.41684">
        <ele>599.5</ele>
        <time>2022-10-17T12:47:26.418Z</time>
      </trkpt>
      <trkpt lat="43.58488" lon="6.41687">
        <ele>597.7</ele>
        <time>2022-10-17T12:47:28.063Z</time>
      </trkpt>
      <trkpt lat="43.58483" lon="6.41685">
        <ele>599.1</ele>
        <time>2022-10-17T12:47:48.529Z</time>
      </trkpt>
      <trkpt lat="43.58488" lon="6.41682">
        <ele>599.1</ele>
        <time>2022-10-17T12:47:54.086Z</time>
      </trkpt>
      <trkpt lat="43.58491" lon="6.4167">
        <ele>602.3</ele>
        <time>2022-10-17T12:48:30.239Z</time>
      </trkpt>
      <trkpt lat="43.58495" lon="6.41657">
        <ele>603.7</ele>
        <time>2022-10-17T12:49:10.462Z</time>
      </trkpt>
      <trkpt lat="43.58493" lon="6.41645">
        <ele>604.2</ele>
        <time>2022-10-17T12:49:27.017Z</time>
      </trkpt>
      <trkpt lat="43.58495" lon="6.41632">
        <ele>604.6</ele>
        <time>2022-10-17T12:49:42.858Z</time>
      </trkpt>
      <trkpt lat="43.58492" lon="6.41621">
        <ele>604.4</ele>
        <time>2022-10-17T12:49:45.460Z</time>
      </trkpt>
      <trkpt lat="43.58492" lon="6.4161">
        <ele>604.4</ele>
        <time>2022-10-17T12:49:53.582Z</time>
      </trkpt>
      <trkpt lat="43.58497" lon="6.41601">
        <ele>604.8</ele>
        <time>2022-10-17T12:50:08.100Z</time>
      </trkpt>
      <trkpt lat="43.58499" lon="6.41588">
        <ele>604.9</ele>
        <time>2022-10-17T12:50:18.944Z</time>
      </trkpt>
      <trkpt lat="43.58503" lon="6.41576">
        <ele>605.3</ele>
        <time>2022-10-17T12:50:34.749Z</time>
      </trkpt>
      <trkpt lat="43.58511" lon="6.41564">
        <ele>605.8</ele>
        <time>2022-10-17T12:50:54.415Z</time>
      </trkpt>
      <trkpt lat="43.58514" lon="6.41552">
        <ele>606</ele>
        <time>2022-10-17T12:51:06.119Z</time>
      </trkpt>
      <trkpt lat="43.58519" lon="6.41541">
        <ele>606</ele>
        <time>2022-10-17T12:51:15.708Z</time>
      </trkpt>
      <trkpt lat="43.58525" lon="6.41527">
        <ele>606</ele>
        <time>2022-10-17T12:51:27.718Z</time>
      </trkpt>
      <trkpt lat="43.58532" lon="6.41525">
        <ele>604.4</ele>
        <time>2022-10-17T12:51:29.322Z</time>
      </trkpt>
      <trkpt lat="43.58539" lon="6.41531">
        <ele>602.5</ele>
        <time>2022-10-17T12:51:31.171Z</time>
      </trkpt>
      <trkpt lat="43.58536" lon="6.41531">
        <ele>603.3</ele>
        <time>2022-10-17T12:51:42.966Z</time>
      </trkpt>
      <trkpt lat="43.58534" lon="6.41525">
        <ele>603.8</ele>
        <time>2022-10-17T12:51:56.231Z</time>
      </trkpt>
      <trkpt lat="43.58527" lon="6.41521">
        <ele>605.5</ele>
        <time>2022-10-17T12:52:26.016Z</time>
      </trkpt>
      <trkpt lat="43.58529" lon="6.41508">
        <ele>604.3</ele>
        <time>2022-10-17T12:52:28.177Z</time>
      </trkpt>
      <trkpt lat="43.58537" lon="6.41499">
        <ele>601.4</ele>
        <time>2022-10-17T12:52:30.493Z</time>
      </trkpt>
      <trkpt lat="43.58539" lon="6.41485">
        <ele>601.1</ele>
        <time>2022-10-17T12:52:33.466Z</time>
      </trkpt>
      <trkpt lat="43.58538" lon="6.41469">
        <ele>601.8</ele>
        <time>2022-10-17T12:52:55.680Z</time>
      </trkpt>
      <trkpt lat="43.58531" lon="6.41454">
        <ele>603.9</ele>
        <time>2022-10-17T12:53:46.495Z</time>
      </trkpt>
      <trkpt lat="43.58526" lon="6.41442">
        <ele>605.2</ele>
        <time>2022-10-17T12:54:23.871Z</time>
      </trkpt>
      <trkpt lat="43.58526" lon="6.41427">
        <ele>606.2</ele>
        <time>2022-10-17T12:54:50.598Z</time>
      </trkpt>
      <trkpt lat="43.5852" lon="6.41415">
        <ele>606.8</ele>
        <time>2022-10-17T12:55:10.301Z</time>
      </trkpt>
      <trkpt lat="43.58518" lon="6.41401">
        <ele>607.8</ele>
        <time>2022-10-17T12:55:36.857Z</time>
      </trkpt>
      <trkpt lat="43.58526" lon="6.41389">
        <ele>609</ele>
        <time>2022-10-17T12:56:08.660Z</time>
      </trkpt>
      <trkpt lat="43.58532" lon="6.41373">
        <ele>610.2</ele>
        <time>2022-10-17T12:56:40.737Z</time>
      </trkpt>
      <trkpt lat="43.5854" lon="6.41361">
        <ele>611.5</ele>
        <time>2022-10-17T12:57:15.448Z</time>
      </trkpt>
      <trkpt lat="43.58547" lon="6.41346">
        <ele>613.3</ele>
        <time>2022-10-17T12:58:06.264Z</time>
      </trkpt>
      <trkpt lat="43.58545" lon="6.41326">
        <ele>614.9</ele>
        <time>2022-10-17T12:58:48.940Z</time>
      </trkpt>
      <trkpt lat="43.58543" lon="6.41319">
        <ele>615.1</ele>
        <time>2022-10-17T12:58:57.308Z</time>
      </trkpt>
      <trkpt lat="43.58543" lon="6.41318">
        <ele>615.1</ele>
        <time>2022-10-17T12:58:58.047Z</time>
      </trkpt>
      <trkpt lat="43.58533" lon="6.41322">
        <ele>614.6</ele>
        <time>2022-10-17T12:59:00.539Z</time>
      </trkpt>
      <trkpt lat="43.58523" lon="6.41326">
        <ele>614.2</ele>
        <time>2022-10-17T12:59:03.263Z</time>
      </trkpt>
      <trkpt lat="43.58512" lon="6.41325">
        <ele>614</ele>
        <time>2022-10-17T12:59:06.848Z</time>
      </trkpt>
      <trkpt lat="43.58503" lon="6.41325">
        <ele>613.8</ele>
        <time>2022-10-17T12:59:09.638Z</time>
      </trkpt>
      <trkpt lat="43.58498" lon="6.41328">
        <ele>613.4</ele>
        <time>2022-10-17T12:59:10.862Z</time>
      </trkpt>
      <trkpt lat="43.58494" lon="6.41333">
        <ele>612.8</ele>
        <time>2022-10-17T12:59:12.073Z</time>
      </trkpt>
      <trkpt lat="43.58503" lon="6.41326">
        <ele>613.8</ele>
        <time>2022-10-17T12:59:38.628Z</time>
      </trkpt>
      <trkpt lat="43.58511" lon="6.41325">
        <ele>613.9</ele>
        <time>2022-10-17T12:59:47.869Z</time>
      </trkpt>
      <trkpt lat="43.58519" lon="6.41325">
        <ele>614.1</ele>
        <time>2022-10-17T12:59:58.446Z</time>
      </trkpt>
      <trkpt lat="43.58529" lon="6.41321">
        <ele>614.5</ele>
        <time>2022-10-17T13:00:14.821Z</time>
      </trkpt>
      <trkpt lat="43.58539" lon="6.41318">
        <ele>614.9</ele>
        <time>2022-10-17T13:00:31.069Z</time>
      </trkpt>
      <trkpt lat="43.58545" lon="6.4131">
        <ele>615.4</ele>
        <time>2022-10-17T13:00:46.972Z</time>
      </trkpt>
      <trkpt lat="43.58549" lon="6.413">
        <ele>616</ele>
        <time>2022-10-17T13:01:04.271Z</time>
      </trkpt>
      <trkpt lat="43.58552" lon="6.41287">
        <ele>616.5</ele>
        <time>2022-10-17T13:01:21.954Z</time>
      </trkpt>
      <trkpt lat="43.58558" lon="6.41278">
        <ele>616.4</ele>
        <time>2022-10-17T13:01:25.093Z</time>
      </trkpt>
      <trkpt lat="43.58561" lon="6.41266">
        <ele>616.7</ele>
        <time>2022-10-17T13:01:38.461Z</time>
      </trkpt>
      <trkpt lat="43.58562" lon="6.41253">
        <ele>617.6</ele>
        <time>2022-10-17T13:02:02.405Z</time>
      </trkpt>
      <trkpt lat="43.58567" lon="6.41241">
        <ele>618.2</ele>
        <time>2022-10-17T13:02:21.508Z</time>
      </trkpt>
      <trkpt lat="43.58568" lon="6.41226">
        <ele>619.2</ele>
        <time>2022-10-17T13:02:48.254Z</time>
      </trkpt>
      <trkpt lat="43.5857" lon="6.4121">
        <ele>619.7</ele>
        <time>2022-10-17T13:03:07.887Z</time>
      </trkpt>
      <trkpt lat="43.58574" lon="6.41196">
        <ele>620</ele>
        <time>2022-10-17T13:03:22.744Z</time>
      </trkpt>
      <trkpt lat="43.58577" lon="6.41184">
        <ele>620.4</ele>
        <time>2022-10-17T13:03:38.325Z</time>
      </trkpt>
      <trkpt lat="43.58577" lon="6.41171">
        <ele>620.9</ele>
        <time>2022-10-17T13:03:55.455Z</time>
      </trkpt>
      <trkpt lat="43.58579" lon="6.41157">
        <ele>621</ele>
        <time>2022-10-17T13:04:07.015Z</time>
      </trkpt>
      <trkpt lat="43.58583" lon="6.41142">
        <ele>621</ele>
        <time>2022-10-17T13:04:18.817Z</time>
      </trkpt>
      <trkpt lat="43.58594" lon="6.41145">
        <ele>621</ele>
        <time>2022-10-17T13:04:30.246Z</time>
      </trkpt>
      <trkpt lat="43.58602" lon="6.41146">
        <ele>621</ele>
        <time>2022-10-17T13:04:38.434Z</time>
      </trkpt>
      <trkpt lat="43.58609" lon="6.41147">
        <ele>621</ele>
        <time>2022-10-17T13:04:45.607Z</time>
      </trkpt>
      <trkpt lat="43.58612" lon="6.41152">
        <ele>620.8</ele>
        <time>2022-10-17T13:04:46.790Z</time>
      </trkpt>
      <trkpt lat="43.5862" lon="6.41155">
        <ele>619.5</ele>
        <time>2022-10-17T13:04:48.651Z</time>
      </trkpt>
      <trkpt lat="43.58626" lon="6.41159">
        <ele>618.5</ele>
        <time>2022-10-17T13:04:50.146Z</time>
      </trkpt>
      <trkpt lat="43.5863" lon="6.41163">
        <ele>617.7</ele>
        <time>2022-10-17T13:04:51.255Z</time>
      </trkpt>
      <trkpt lat="43.58636" lon="6.41169">
        <ele>614.4</ele>
        <time>2022-10-17T13:04:52.917Z</time>
      </trkpt>
      <trkpt lat="43.58643" lon="6.41175">
        <ele>605.4</ele>
        <time>2022-10-17T13:04:54.766Z</time>
      </trkpt>
      <trkpt lat="43.58635" lon="6.41163">
        <ele>616.8</ele>
        <time>2022-10-17T13:05:41.211Z</time>
      </trkpt>
      <trkpt lat="43.58603" lon="6.41141">
        <ele>621</ele>
        <time>2022-10-17T13:07:35.433Z</time>
      </trkpt>
      <trkpt lat="43.58595" lon="6.41137">
        <ele>621.1</ele>
        <time>2022-10-17T13:07:45.152Z</time>
      </trkpt>
      <trkpt lat="43.58585" lon="6.41138">
        <ele>621</ele>
        <time>2022-10-17T13:07:48.767Z</time>
      </trkpt>
      <trkpt lat="43.58582" lon="6.4113">
        <ele>621.3</ele>
        <time>2022-10-17T13:08:00.098Z</time>
      </trkpt>
      <trkpt lat="43.58587" lon="6.41117">
        <ele>621.8</ele>
        <time>2022-10-17T13:08:18.722Z</time>
      </trkpt>
      <trkpt lat="43.58594" lon="6.41106">
        <ele>622.2</ele>
        <time>2022-10-17T13:08:35.238Z</time>
      </trkpt>
      <trkpt lat="43.58602" lon="6.41088">
        <ele>622.9</ele>
        <time>2022-10-17T13:09:01.765Z</time>
      </trkpt>
      <trkpt lat="43.58603" lon="6.41071">
        <ele>623.1</ele>
        <time>2022-10-17T13:09:16.550Z</time>
      </trkpt>
      <trkpt lat="43.58607" lon="6.41055">
        <ele>623.2</ele>
        <time>2022-10-17T13:09:30.056Z</time>
      </trkpt>
      <trkpt lat="43.58614" lon="6.41045">
        <ele>623.4</ele>
        <time>2022-10-17T13:09:42.606Z</time>
      </trkpt>
      <trkpt lat="43.58619" lon="6.41033">
        <ele>623.8</ele>
        <time>2022-10-17T13:09:58.712Z</time>
      </trkpt>
      <trkpt lat="43.58625" lon="6.41023">
        <ele>624.2</ele>
        <time>2022-10-17T13:10:14.417Z</time>
      </trkpt>
      <trkpt lat="43.58632" lon="6.41008">
        <ele>624.7</ele>
        <time>2022-10-17T13:10:34.821Z</time>
      </trkpt>
      <trkpt lat="43.58639" lon="6.40998">
        <ele>625.1</ele>
        <time>2022-10-17T13:10:50.958Z</time>
      </trkpt>
      <trkpt lat="43.58648" lon="6.40993">
        <ele>624.8</ele>
        <time>2022-10-17T13:10:53.694Z</time>
      </trkpt>
      <trkpt lat="43.58661" lon="6.40987">
        <ele>624.7</ele>
        <time>2022-10-17T13:10:58.818Z</time>
      </trkpt>
      <trkpt lat="43.58673" lon="6.40983">
        <ele>624.2</ele>
        <time>2022-10-17T13:11:01.984Z</time>
      </trkpt>
      <trkpt lat="43.58684" lon="6.40986">
        <ele>622.9</ele>
        <time>2022-10-17T13:11:04.500Z</time>
      </trkpt>
      <trkpt lat="43.58694" lon="6.40984">
        <ele>622.4</ele>
        <time>2022-10-17T13:11:06.889Z</time>
      </trkpt>
      <trkpt lat="43.58697" lon="6.40976">
        <ele>623.1</ele>
        <time>2022-10-17T13:11:25.505Z</time>
      </trkpt>
      <trkpt lat="43.58705" lon="6.40969">
        <ele>623.2</ele>
        <time>2022-10-17T13:11:36.193Z</time>
      </trkpt>
      <trkpt lat="43.58711" lon="6.40958">
        <ele>623.8</ele>
        <time>2022-10-17T13:11:55.237Z</time>
      </trkpt>
      <trkpt lat="43.58716" lon="6.40944">
        <ele>624.7</ele>
        <time>2022-10-17T13:12:20.237Z</time>
      </trkpt>
      <trkpt lat="43.58722" lon="6.4093">
        <ele>625.1</ele>
        <time>2022-10-17T13:12:37.667Z</time>
      </trkpt>
      <trkpt lat="43.58727" lon="6.40916">
        <ele>624.2</ele>
        <time>2022-10-17T13:12:40.204Z</time>
      </trkpt>
      <trkpt lat="43.58729" lon="6.40899">
        <ele>625</ele>
        <time>2022-10-17T13:13:04.707Z</time>
      </trkpt>
      <trkpt lat="43.58731" lon="6.40883">
        <ele>625.5</ele>
        <time>2022-10-17T13:13:24.340Z</time>
      </trkpt>
      <trkpt lat="43.58735" lon="6.40869">
        <ele>625.9</ele>
        <time>2022-10-17T13:13:41.077Z</time>
      </trkpt>
      <trkpt lat="43.58741" lon="6.40857">
        <ele>626</ele>
        <time>2022-10-17T13:13:52.864Z</time>
      </trkpt>
      <trkpt lat="43.5875" lon="6.40846">
        <ele>626.3</ele>
        <time>2022-10-17T13:14:08.747Z</time>
      </trkpt>
      <trkpt lat="43.58755" lon="6.40833">
        <ele>625.4</ele>
        <time>2022-10-17T13:14:11.140Z</time>
      </trkpt>
      <trkpt lat="43.58756" lon="6.40816">
        <ele>625.7</ele>
        <time>2022-10-17T13:14:27.335Z</time>
      </trkpt>
      <trkpt lat="43.58756" lon="6.40803">
        <ele>626.6</ele>
        <time>2022-10-17T13:14:51.264Z</time>
      </trkpt>
      <trkpt lat="43.58762" lon="6.40793">
        <ele>624.5</ele>
        <time>2022-10-17T13:14:53.374Z</time>
      </trkpt>
      <trkpt lat="43.58769" lon="6.4078">
        <ele>623.1</ele>
        <time>2022-10-17T13:14:56.008Z</time>
      </trkpt>
      <trkpt lat="43.5877" lon="6.40766">
        <ele>623.6</ele>
        <time>2022-10-17T13:15:14.059Z</time>
      </trkpt>
      <trkpt lat="43.58767" lon="6.40758">
        <ele>625.1</ele>
        <time>2022-10-17T13:15:39.712Z</time>
      </trkpt>
      <trkpt lat="43.58771" lon="6.40745">
        <ele>625.2</ele>
        <time>2022-10-17T13:15:51.166Z</time>
      </trkpt>
      <trkpt lat="43.58774" lon="6.40731">
        <ele>625.6</ele>
        <time>2022-10-17T13:16:07.660Z</time>
      </trkpt>
      <trkpt lat="43.58777" lon="6.40718">
        <ele>626.2</ele>
        <time>2022-10-17T13:16:26.603Z</time>
      </trkpt>
      <trkpt lat="43.5878" lon="6.40707">
        <ele>625.7</ele>
        <time>2022-10-17T13:16:28.465Z</time>
      </trkpt>
      <trkpt lat="43.58785" lon="6.40693">
        <ele>625.5</ele>
        <time>2022-10-17T13:16:32.162Z</time>
      </trkpt>
      <trkpt lat="43.58784" lon="6.40675">
        <ele>625.5</ele>
        <time>2022-10-17T13:16:45.491Z</time>
      </trkpt>
      <trkpt lat="43.58786" lon="6.40662">
        <ele>625.5</ele>
        <time>2022-10-17T13:16:55.302Z</time>
      </trkpt>
      <trkpt lat="43.5879" lon="6.40646">
        <ele>625.4</ele>
        <time>2022-10-17T13:16:59.832Z</time>
      </trkpt>
      <trkpt lat="43.58799" lon="6.40633">
        <ele>625.2</ele>
        <time>2022-10-17T13:17:04.214Z</time>
      </trkpt>
      <trkpt lat="43.58806" lon="6.4062">
        <ele>625</ele>
        <time>2022-10-17T13:17:08.081Z</time>
      </trkpt>
      <trkpt lat="43.58814" lon="6.40608">
        <ele>624.1</ele>
        <time>2022-10-17T13:17:10.732Z</time>
      </trkpt>
      <trkpt lat="43.58824" lon="6.40594">
        <ele>623.5</ele>
        <time>2022-10-17T13:17:14.329Z</time>
      </trkpt>
      <trkpt lat="43.5883" lon="6.40581">
        <ele>623.3</ele>
        <time>2022-10-17T13:17:17.970Z</time>
      </trkpt>
      <trkpt lat="43.58836" lon="6.40569">
        <ele>623.3</ele>
        <time>2022-10-17T13:17:28.735Z</time>
      </trkpt>
      <trkpt lat="43.58843" lon="6.40554">
        <ele>623.4</ele>
        <time>2022-10-17T13:17:42.914Z</time>
      </trkpt>
      <trkpt lat="43.58848" lon="6.40539">
        <ele>623.8</ele>
        <time>2022-10-17T13:18:00.489Z</time>
      </trkpt>
      <trkpt lat="43.58851" lon="6.40524">
        <ele>624.5</ele>
        <time>2022-10-17T13:18:22.308Z</time>
      </trkpt>
      <trkpt lat="43.58856" lon="6.40517">
        <ele>624.7</ele>
        <time>2022-10-17T13:18:32.080Z</time>
      </trkpt>
      <trkpt lat="43.58856" lon="6.40522">
        <ele>624.5</ele>
        <time>2022-10-17T13:18:32.896Z</time>
      </trkpt>
      <trkpt lat="43.58863" lon="6.40518">
        <ele>624.6</ele>
        <time>2022-10-17T13:18:41.680Z</time>
      </trkpt>
      <trkpt lat="43.58872" lon="6.40513">
        <ele>624.7</ele>
        <time>2022-10-17T13:18:52.599Z</time>
      </trkpt>
      <trkpt lat="43.58884" lon="6.40509">
        <ele>624.6</ele>
        <time>2022-10-17T13:18:57.163Z</time>
      </trkpt>
      <trkpt lat="43.58894" lon="6.40505">
        <ele>624.3</ele>
        <time>2022-10-17T13:19:00.165Z</time>
      </trkpt>
      <trkpt lat="43.58902" lon="6.40496">
        <ele>624.2</ele>
        <time>2022-10-17T13:19:03.899Z</time>
      </trkpt>
      <trkpt lat="43.58908" lon="6.40487">
        <ele>624.1</ele>
        <time>2022-10-17T13:19:07.039Z</time>
      </trkpt>
      <trkpt lat="43.58918" lon="6.40476">
        <ele>623.6</ele>
        <time>2022-10-17T13:19:10.361Z</time>
      </trkpt>
      <trkpt lat="43.58925" lon="6.40464">
        <ele>623.7</ele>
        <time>2022-10-17T13:19:22.754Z</time>
      </trkpt>
      <trkpt lat="43.58932" lon="6.40452">
        <ele>624.1</ele>
        <time>2022-10-17T13:19:39.689Z</time>
      </trkpt>
      <trkpt lat="43.58938" lon="6.40442">
        <ele>624.6</ele>
        <time>2022-10-17T13:19:56.807Z</time>
      </trkpt>
      <trkpt lat="43.58942" lon="6.40428">
        <ele>625.3</ele>
        <time>2022-10-17T13:20:18.231Z</time>
      </trkpt>
      <trkpt lat="43.58948" lon="6.40416">
        <ele>625.5</ele>
        <time>2022-10-17T13:20:31.255Z</time>
      </trkpt>
      <trkpt lat="43.58954" lon="6.40405">
        <ele>625.6</ele>
        <time>2022-10-17T13:20:42.450Z</time>
      </trkpt>
      <trkpt lat="43.58963" lon="6.40394">
        <ele>626.3</ele>
        <time>2022-10-17T13:21:05.095Z</time>
      </trkpt>
      <trkpt lat="43.58969" lon="6.40382">
        <ele>627.5</ele>
        <time>2022-10-17T13:21:37.374Z</time>
      </trkpt>
      <trkpt lat="43.58977" lon="6.40375">
        <ele>627.7</ele>
        <time>2022-10-17T13:21:49.344Z</time>
      </trkpt>
      <trkpt lat="43.58984" lon="6.40363">
        <ele>628.4</ele>
        <time>2022-10-17T13:22:11.043Z</time>
      </trkpt>
      <trkpt lat="43.5899" lon="6.40352">
        <ele>628.7</ele>
        <time>2022-10-17T13:22:25.075Z</time>
      </trkpt>
      <trkpt lat="43.58993" lon="6.40336">
        <ele>629.2</ele>
        <time>2022-10-17T13:22:44.838Z</time>
      </trkpt>
      <trkpt lat="43.58997" lon="6.4032">
        <ele>629.6</ele>
        <time>2022-10-17T13:23:02.661Z</time>
      </trkpt>
      <trkpt lat="43.59003" lon="6.40309">
        <ele>629.9</ele>
        <time>2022-10-17T13:23:16.693Z</time>
      </trkpt>
      <trkpt lat="43.59009" lon="6.40297">
        <ele>630.3</ele>
        <time>2022-10-17T13:23:33.177Z</time>
      </trkpt>
      <trkpt lat="43.59016" lon="6.40285">
        <ele>630.8</ele>
        <time>2022-10-17T13:23:52.412Z</time>
      </trkpt>
      <trkpt lat="43.59019" lon="6.4027">
        <ele>631.1</ele>
        <time>2022-10-17T13:24:07.605Z</time>
      </trkpt>
      <trkpt lat="43.59027" lon="6.4026">
        <ele>631</ele>
        <time>2022-10-17T13:24:11.532Z</time>
      </trkpt>
      <trkpt lat="43.59037" lon="6.40253">
        <ele>629.9</ele>
        <time>2022-10-17T13:24:14.048Z</time>
      </trkpt>
      <trkpt lat="43.59044" lon="6.40239">
        <ele>629.5</ele>
        <time>2022-10-17T13:24:17.468Z</time>
      </trkpt>
      <trkpt lat="43.59049" lon="6.40226">
        <ele>629.4</ele>
        <time>2022-10-17T13:24:21.342Z</time>
      </trkpt>
      <trkpt lat="43.59058" lon="6.40215">
        <ele>628.5</ele>
        <time>2022-10-17T13:24:24.040Z</time>
      </trkpt>
      <trkpt lat="43.59064" lon="6.40202">
        <ele>627.8</ele>
        <time>2022-10-17T13:24:26.406Z</time>
      </trkpt>
      <trkpt lat="43.59068" lon="6.40185">
        <ele>628.1</ele>
        <time>2022-10-17T13:24:43.158Z</time>
      </trkpt>
      <trkpt lat="43.59072" lon="6.40171">
        <ele>628</ele>
        <time>2022-10-17T13:24:47.130Z</time>
      </trkpt>
      <trkpt lat="43.59075" lon="6.40156">
        <ele>627.9</ele>
        <time>2022-10-17T13:24:51.254Z</time>
      </trkpt>
      <trkpt lat="43.59079" lon="6.40143">
        <ele>627.9</ele>
        <time>2022-10-17T13:25:01.681Z</time>
      </trkpt>
      <trkpt lat="43.59082" lon="6.40129">
        <ele>627.2</ele>
        <time>2022-10-17T13:25:03.863Z</time>
      </trkpt>
      <trkpt lat="43.59091" lon="6.4012">
        <ele>626.5</ele>
        <time>2022-10-17T13:25:06.213Z</time>
      </trkpt>
      <trkpt lat="43.59104" lon="6.40112">
        <ele>626</ele>
        <time>2022-10-17T13:25:10.059Z</time>
      </trkpt>
      <trkpt lat="43.59114" lon="6.40101">
        <ele>625.9</ele>
        <time>2022-10-17T13:25:14.804Z</time>
      </trkpt>
      <trkpt lat="43.59122" lon="6.40087">
        <ele>625.9</ele>
        <time>2022-10-17T13:25:27.969Z</time>
      </trkpt>
      <trkpt lat="43.5913" lon="6.40075">
        <ele>625.9</ele>
        <time>2022-10-17T13:25:40.009Z</time>
      </trkpt>
      <trkpt lat="43.59135" lon="6.40063">
        <ele>625.9</ele>
        <time>2022-10-17T13:25:50.230Z</time>
      </trkpt>
      <trkpt lat="43.59145" lon="6.40053">
        <ele>625.8</ele>
        <time>2022-10-17T13:25:54.795Z</time>
      </trkpt>
      <trkpt lat="43.59151" lon="6.40042">
        <ele>625.8</ele>
        <time>2022-10-17T13:26:04.961Z</time>
      </trkpt>
      <trkpt lat="43.59156" lon="6.40027">
        <ele>625.8</ele>
        <time>2022-10-17T13:26:17.151Z</time>
      </trkpt>
      <trkpt lat="43.59159" lon="6.40028">
        <ele>625.6</ele>
        <time>2022-10-17T13:26:17.795Z</time>
      </trkpt>
      <trkpt lat="43.59161" lon="6.40035">
        <ele>625.3</ele>
        <time>2022-10-17T13:26:19.024Z</time>
      </trkpt>
      <trkpt lat="43.59163" lon="6.40039">
        <ele>625.2</ele>
        <time>2022-10-17T13:26:20.043Z</time>
      </trkpt>
      <trkpt lat="43.59172" lon="6.40047">
        <ele>624.1</ele>
        <time>2022-10-17T13:26:22.445Z</time>
      </trkpt>
      <trkpt lat="43.59184" lon="6.4005">
        <ele>622.1</ele>
        <time>2022-10-17T13:26:25.182Z</time>
      </trkpt>
      <trkpt lat="43.59198" lon="6.40048">
        <ele>619.9</ele>
        <time>2022-10-17T13:26:28.341Z</time>
      </trkpt>
      <trkpt lat="43.59213" lon="6.40045">
        <ele>618</ele>
        <time>2022-10-17T13:26:31.742Z</time>
      </trkpt>
      <trkpt lat="43.59225" lon="6.40043">
        <ele>616.3</ele>
        <time>2022-10-17T13:26:34.455Z</time>
      </trkpt>
      <trkpt lat="43.59238" lon="6.40042">
        <ele>613.4</ele>
        <time>2022-10-17T13:26:37.377Z</time>
      </trkpt>
      <trkpt lat="43.59245" lon="6.40038">
        <ele>612.2</ele>
        <time>2022-10-17T13:26:39.077Z</time>
      </trkpt>
      <trkpt lat="43.59253" lon="6.40036">
        <ele>610.6</ele>
        <time>2022-10-17T13:26:40.902Z</time>
      </trkpt>
      <trkpt lat="43.59263" lon="6.40029">
        <ele>609.5</ele>
        <time>2022-10-17T13:26:43.418Z</time>
      </trkpt>
      <trkpt lat="43.59271" lon="6.40018">
        <ele>609.8</ele>
        <time>2022-10-17T13:26:58.628Z</time>
      </trkpt>
      <trkpt lat="43.59285" lon="6.40007">
        <ele>608.4</ele>
        <time>2022-10-17T13:27:02.243Z</time>
      </trkpt>
      <trkpt lat="43.59297" lon="6.39997">
        <ele>607.2</ele>
        <time>2022-10-17T13:27:05.389Z</time>
      </trkpt>
      <trkpt lat="43.59308" lon="6.39992">
        <ele>605</ele>
        <time>2022-10-17T13:27:07.988Z</time>
      </trkpt>
      <trkpt lat="43.59316" lon="6.39978">
        <ele>604.3</ele>
        <time>2022-10-17T13:27:10.920Z</time>
      </trkpt>
      <trkpt lat="43.59324" lon="6.39966">
        <ele>603</ele>
        <time>2022-10-17T13:27:13.571Z</time>
      </trkpt>
      <trkpt lat="43.59334" lon="6.39957">
        <ele>600.2</ele>
        <time>2022-10-17T13:27:16.250Z</time>
      </trkpt>
      <trkpt lat="43.59339" lon="6.39948">
        <ele>599.7</ele>
        <time>2022-10-17T13:27:18.017Z</time>
      </trkpt>
      <trkpt lat="43.59342" lon="6.39933">
        <ele>600.9</ele>
        <time>2022-10-17T13:27:49.903Z</time>
      </trkpt>
      <trkpt lat="43.59347" lon="6.39921">
        <ele>600.4</ele>
        <time>2022-10-17T13:27:52.265Z</time>
      </trkpt>
      <trkpt lat="43.59352" lon="6.39906">
        <ele>601</ele>
        <time>2022-10-17T13:28:13.604Z</time>
      </trkpt>
      <trkpt lat="43.59356" lon="6.3989">
        <ele>601.4</ele>
        <time>2022-10-17T13:28:31.426Z</time>
      </trkpt>
      <trkpt lat="43.59361" lon="6.3988">
        <ele>599</ele>
        <time>2022-10-17T13:28:33.401Z</time>
      </trkpt>
      <trkpt lat="43.59369" lon="6.3987">
        <ele>598.4</ele>
        <time>2022-10-17T13:28:35.823Z</time>
      </trkpt>
      <trkpt lat="43.59375" lon="6.39857">
        <ele>598.8</ele>
        <time>2022-10-17T13:28:52.761Z</time>
      </trkpt>
      <trkpt lat="43.59383" lon="6.39844">
        <ele>599</ele>
        <time>2022-10-17T13:29:07.547Z</time>
      </trkpt>
      <trkpt lat="43.59392" lon="6.39834">
        <ele>597</ele>
        <time>2022-10-17T13:29:10.140Z</time>
      </trkpt>
      <trkpt lat="43.59397" lon="6.39822">
        <ele>596.7</ele>
        <time>2022-10-17T13:29:12.997Z</time>
      </trkpt>
      <trkpt lat="43.594" lon="6.39806">
        <ele>597.8</ele>
        <time>2022-10-17T13:29:42.404Z</time>
      </trkpt>
      <trkpt lat="43.59409" lon="6.398">
        <ele>595.4</ele>
        <time>2022-10-17T13:29:44.647Z</time>
      </trkpt>
      <trkpt lat="43.59416" lon="6.39787">
        <ele>593.9</ele>
        <time>2022-10-17T13:29:47.280Z</time>
      </trkpt>
      <trkpt lat="43.59417" lon="6.39771">
        <ele>593.8</ele>
        <time>2022-10-17T13:29:51.551Z</time>
      </trkpt>
      <trkpt lat="43.59417" lon="6.39752">
        <ele>593</ele>
        <time>2022-10-17T13:29:54.575Z</time>
      </trkpt>
      <trkpt lat="43.59419" lon="6.39736">
        <ele>591.7</ele>
        <time>2022-10-17T13:29:57.215Z</time>
      </trkpt>
      <trkpt lat="43.5942" lon="6.3972">
        <ele>591.5</ele>
        <time>2022-10-17T13:30:01.040Z</time>
      </trkpt>
      <trkpt lat="43.59426" lon="6.39708">
        <ele>591.8</ele>
        <time>2022-10-17T13:30:15.591Z</time>
      </trkpt>
      <trkpt lat="43.59435" lon="6.39696">
        <ele>591</ele>
        <time>2022-10-17T13:30:18.218Z</time>
      </trkpt>
      <trkpt lat="43.59443" lon="6.39684">
        <ele>589.9</ele>
        <time>2022-10-17T13:30:20.869Z</time>
      </trkpt>
      <trkpt lat="43.59451" lon="6.39674">
        <ele>588.8</ele>
        <time>2022-10-17T13:30:23.290Z</time>
      </trkpt>
      <trkpt lat="43.59457" lon="6.39663">
        <ele>588.3</ele>
        <time>2022-10-17T13:30:25.635Z</time>
      </trkpt>
      <trkpt lat="43.59461" lon="6.3965">
        <ele>588.4</ele>
        <time>2022-10-17T13:30:37.087Z</time>
      </trkpt>
      <trkpt lat="43.59466" lon="6.39636">
        <ele>588.1</ele>
        <time>2022-10-17T13:30:40.427Z</time>
      </trkpt>
      <trkpt lat="43.59471" lon="6.39622">
        <ele>586.9</ele>
        <time>2022-10-17T13:30:42.965Z</time>
      </trkpt>
      <trkpt lat="43.59478" lon="6.3961">
        <ele>585.4</ele>
        <time>2022-10-17T13:30:45.469Z</time>
      </trkpt>
      <trkpt lat="43.59483" lon="6.39598">
        <ele>584.8</ele>
        <time>2022-10-17T13:30:47.643Z</time>
      </trkpt>
      <trkpt lat="43.5949" lon="6.39587">
        <ele>583.7</ele>
        <time>2022-10-17T13:30:50.023Z</time>
      </trkpt>
      <trkpt lat="43.59499" lon="6.39577">
        <ele>582.4</ele>
        <time>2022-10-17T13:30:52.615Z</time>
      </trkpt>
      <trkpt lat="43.59509" lon="6.39567">
        <ele>581.9</ele>
        <time>2022-10-17T13:30:55.782Z</time>
      </trkpt>
      <trkpt lat="43.5952" lon="6.39556">
        <ele>581</ele>
        <time>2022-10-17T13:30:58.583Z</time>
      </trkpt>
      <trkpt lat="43.59532" lon="6.39547">
        <ele>579.2</ele>
        <time>2022-10-17T13:31:01.648Z</time>
      </trkpt>
      <trkpt lat="43.59539" lon="6.39538">
        <ele>578.6</ele>
        <time>2022-10-17T13:31:03.675Z</time>
      </trkpt>
      <trkpt lat="43.59553" lon="6.39533">
        <ele>575.9</ele>
        <time>2022-10-17T13:31:06.920Z</time>
      </trkpt>
      <trkpt lat="43.59562" lon="6.39525">
        <ele>575.7</ele>
        <time>2022-10-17T13:31:10.378Z</time>
      </trkpt>
      <trkpt lat="43.59574" lon="6.39522">
        <ele>574.9</ele>
        <time>2022-10-17T13:31:12.906Z</time>
      </trkpt>
      <trkpt lat="43.5959" lon="6.3952">
        <ele>573.9</ele>
        <time>2022-10-17T13:31:16.324Z</time>
      </trkpt>
      <trkpt lat="43.596" lon="6.39516">
        <ele>574.1</ele>
        <time>2022-10-17T13:31:29.202Z</time>
      </trkpt>
      <trkpt lat="43.59615" lon="6.39512">
        <ele>573.8</ele>
        <time>2022-10-17T13:31:34.082Z</time>
      </trkpt>
      <trkpt lat="43.59628" lon="6.39515">
        <ele>572.1</ele>
        <time>2022-10-17T13:31:37.040Z</time>
      </trkpt>
      <trkpt lat="43.59643" lon="6.39516">
        <ele>570.5</ele>
        <time>2022-10-17T13:31:40.411Z</time>
      </trkpt>
      <trkpt lat="43.59659" lon="6.3952">
        <ele>568.9</ele>
        <time>2022-10-17T13:31:44.060Z</time>
      </trkpt>
      <trkpt lat="43.59677" lon="6.39521">
        <ele>567.3</ele>
        <time>2022-10-17T13:31:48.103Z</time>
      </trkpt>
      <trkpt lat="43.59691" lon="6.39517">
        <ele>566.9</ele>
        <time>2022-10-17T13:31:52.262Z</time>
      </trkpt>
      <trkpt lat="43.59698" lon="6.39509">
        <ele>567.3</ele>
        <time>2022-10-17T13:32:07.781Z</time>
      </trkpt>
      <trkpt lat="43.5971" lon="6.39501">
        <ele>566.7</ele>
        <time>2022-10-17T13:32:11.059Z</time>
      </trkpt>
      <trkpt lat="43.59724" lon="6.39494">
        <ele>565.4</ele>
        <time>2022-10-17T13:32:14.400Z</time>
      </trkpt>
      <trkpt lat="43.59736" lon="6.39488">
        <ele>564.6</ele>
        <time>2022-10-17T13:32:17.106Z</time>
      </trkpt>
      <trkpt lat="43.59746" lon="6.39483">
        <ele>563.7</ele>
        <time>2022-10-17T13:32:19.493Z</time>
      </trkpt>
      <trkpt lat="43.59756" lon="6.39476">
        <ele>563.1</ele>
        <time>2022-10-17T13:32:22.053Z</time>
      </trkpt>
      <trkpt lat="43.59765" lon="6.39467">
        <ele>562.9</ele>
        <time>2022-10-17T13:32:25.673Z</time>
      </trkpt>
      <trkpt lat="43.59774" lon="6.39458">
        <ele>562.4</ele>
        <time>2022-10-17T13:32:28.407Z</time>
      </trkpt>
      <trkpt lat="43.59783" lon="6.39452">
        <ele>561.9</ele>
        <time>2022-10-17T13:32:30.758Z</time>
      </trkpt>
      <trkpt lat="43.59792" lon="6.39443">
        <ele>561.5</ele>
        <time>2022-10-17T13:32:33.734Z</time>
      </trkpt>
      <trkpt lat="43.59804" lon="6.39436">
        <ele>560.5</ele>
        <time>2022-10-17T13:32:36.658Z</time>
      </trkpt>
      <trkpt lat="43.59815" lon="6.39428">
        <ele>559.5</ele>
        <time>2022-10-17T13:32:39.448Z</time>
      </trkpt>
      <trkpt lat="43.59827" lon="6.39423">
        <ele>558.5</ele>
        <time>2022-10-17T13:32:42.261Z</time>
      </trkpt>
      <trkpt lat="43.59834" lon="6.39422">
        <ele>557.7</ele>
        <time>2022-10-17T13:32:43.840Z</time>
      </trkpt>
      <trkpt lat="43.59833" lon="6.39422">
        <ele>557.9</ele>
        <time>2022-10-17T13:32:47.772Z</time>
      </trkpt>
      <trkpt lat="43.59841" lon="6.39417">
        <ele>557.2</ele>
        <time>2022-10-17T13:32:49.743Z</time>
      </trkpt>
      <trkpt lat="43.59848" lon="6.39412">
        <ele>556.2</ele>
        <time>2022-10-17T13:32:51.511Z</time>
      </trkpt>
      <trkpt lat="43.59857" lon="6.39405">
        <ele>555</ele>
        <time>2022-10-17T13:32:53.830Z</time>
      </trkpt>
      <trkpt lat="43.59867" lon="6.39396">
        <ele>553.7</ele>
        <time>2022-10-17T13:32:56.508Z</time>
      </trkpt>
      <trkpt lat="43.59873" lon="6.39383">
        <ele>552.4</ele>
        <time>2022-10-17T13:32:59.014Z</time>
      </trkpt>
      <trkpt lat="43.5988" lon="6.39369">
        <ele>550.7</ele>
        <time>2022-10-17T13:33:01.779Z</time>
      </trkpt>
      <trkpt lat="43.5989" lon="6.39356">
        <ele>548.4</ele>
        <time>2022-10-17T13:33:04.861Z</time>
      </trkpt>
      <trkpt lat="43.59896" lon="6.39345">
        <ele>547</ele>
        <time>2022-10-17T13:33:07.099Z</time>
      </trkpt>
      <trkpt lat="43.59901" lon="6.3933">
        <ele>545.5</ele>
        <time>2022-10-17T13:33:09.783Z</time>
      </trkpt>
      <trkpt lat="43.59906" lon="6.39318">
        <ele>544</ele>
        <time>2022-10-17T13:33:12.033Z</time>
      </trkpt>
      <trkpt lat="43.59912" lon="6.39307">
        <ele>542.6</ele>
        <time>2022-10-17T13:33:14.271Z</time>
      </trkpt>
      <trkpt lat="43.59917" lon="6.39297">
        <ele>541.7</ele>
        <time>2022-10-17T13:33:16.246Z</time>
      </trkpt>
      <trkpt lat="43.59922" lon="6.39284">
        <ele>541</ele>
        <time>2022-10-17T13:33:18.455Z</time>
      </trkpt>
      <trkpt lat="43.59927" lon="6.39271">
        <ele>540.9</ele>
        <time>2022-10-17T13:33:22.328Z</time>
      </trkpt>
      <trkpt lat="43.59931" lon="6.39259">
        <ele>541.2</ele>
        <time>2022-10-17T13:33:36.009Z</time>
      </trkpt>
      <trkpt lat="43.59936" lon="6.39247">
        <ele>541.4</ele>
        <time>2022-10-17T13:33:48.513Z</time>
      </trkpt>
      <trkpt lat="43.59939" lon="6.39241">
        <ele>541.3</ele>
        <time>2022-10-17T13:33:50.214Z</time>
      </trkpt>
      <trkpt lat="43.59939" lon="6.39233">
        <ele>541.3</ele>
        <time>2022-10-17T13:33:56.119Z</time>
      </trkpt>
      <trkpt lat="43.59939" lon="6.39217">
        <ele>541.5</ele>
        <time>2022-10-17T13:34:10.148Z</time>
      </trkpt>
      <trkpt lat="43.59945" lon="6.39209">
        <ele>541.5</ele>
        <time>2022-10-17T13:34:18.649Z</time>
      </trkpt>
      <trkpt lat="43.59946" lon="6.39197">
        <ele>541.8</ele>
        <time>2022-10-17T13:34:31.649Z</time>
      </trkpt>
      <trkpt lat="43.5995" lon="6.39187">
        <ele>542.4</ele>
        <time>2022-10-17T13:34:48.947Z</time>
      </trkpt>
      <trkpt lat="43.59953" lon="6.39175">
        <ele>543.1</ele>
        <time>2022-10-17T13:35:08.719Z</time>
      </trkpt>
      <trkpt lat="43.59961" lon="6.39167">
        <ele>543.4</ele>
        <time>2022-10-17T13:35:22.668Z</time>
      </trkpt>
      <trkpt lat="43.59966" lon="6.39158">
        <ele>544.3</ele>
        <time>2022-10-17T13:35:46.679Z</time>
      </trkpt>
      <trkpt lat="43.59987" lon="6.39157">
        <ele>543.6</ele>
        <time>2022-10-17T13:35:52.461Z</time>
      </trkpt>
      <trkpt lat="43.6" lon="6.39162">
        <ele>543.2</ele>
        <time>2022-10-17T13:35:56.318Z</time>
      </trkpt>
      <trkpt lat="43.60013" lon="6.39161">
        <ele>543.2</ele>
        <time>2022-10-17T13:36:09.589Z</time>
      </trkpt>
      <trkpt lat="43.60022" lon="6.39156">
        <ele>543.4</ele>
        <time>2022-10-17T13:36:21.780Z</time>
      </trkpt>
      <trkpt lat="43.60031" lon="6.39148">
        <ele>543.6</ele>
        <time>2022-10-17T13:36:34.943Z</time>
      </trkpt>
      <trkpt lat="43.60041" lon="6.39147">
        <ele>543.5</ele>
        <time>2022-10-17T13:36:38.557Z</time>
      </trkpt>
      <trkpt lat="43.60052" lon="6.39136">
        <ele>543.2</ele>
        <time>2022-10-17T13:36:42.774Z</time>
      </trkpt>
      <trkpt lat="43.60059" lon="6.39126">
        <ele>543.2</ele>
        <time>2022-10-17T13:36:53.041Z</time>
      </trkpt>
      <trkpt lat="43.60066" lon="6.3912">
        <ele>542.6</ele>
        <time>2022-10-17T13:36:54.890Z</time>
      </trkpt>
      <trkpt lat="43.60075" lon="6.39115">
        <ele>541.4</ele>
        <time>2022-10-17T13:36:57.067Z</time>
      </trkpt>
      <trkpt lat="43.6009" lon="6.3912">
        <ele>540.4</ele>
        <time>2022-10-17T13:37:00.285Z</time>
      </trkpt>
      <trkpt lat="43.60099" lon="6.39119">
        <ele>540</ele>
        <time>2022-10-17T13:37:02.520Z</time>
      </trkpt>
      <trkpt lat="43.60108" lon="6.39119">
        <ele>539.7</ele>
        <time>2022-10-17T13:37:04.996Z</time>
      </trkpt>
      <trkpt lat="43.60119" lon="6.39119">
        <ele>539.6</ele>
        <time>2022-10-17T13:37:09.008Z</time>
      </trkpt>
      <trkpt lat="43.60131" lon="6.39115">
        <ele>539.4</ele>
        <time>2022-10-17T13:37:13.119Z</time>
      </trkpt>
      <trkpt lat="43.60142" lon="6.39111">
        <ele>538.8</ele>
        <time>2022-10-17T13:37:15.733Z</time>
      </trkpt>
      <trkpt lat="43.60151" lon="6.39107">
        <ele>537.3</ele>
        <time>2022-10-17T13:37:17.855Z</time>
      </trkpt>
      <trkpt lat="43.60159" lon="6.39106">
        <ele>536.6</ele>
        <time>2022-10-17T13:37:19.658Z</time>
      </trkpt>
      <trkpt lat="43.6017" lon="6.39112">
        <ele>537</ele>
        <time>2022-10-17T13:37:37.124Z</time>
      </trkpt>
      <trkpt lat="43.60175" lon="6.39116">
        <ele>537.2</ele>
        <time>2022-10-17T13:37:45.748Z</time>
      </trkpt>
      <trkpt lat="43.60185" lon="6.39112">
        <ele>536.4</ele>
        <time>2022-10-17T13:37:48.084Z</time>
      </trkpt>
      <trkpt lat="43.60198" lon="6.3911">
        <ele>535.9</ele>
        <time>2022-10-17T13:37:51.513Z</time>
      </trkpt>
      <trkpt lat="43.60218" lon="6.39112">
        <ele>536.9</ele>
        <time>2022-10-17T13:38:27.222Z</time>
      </trkpt>
      <trkpt lat="43.60237" lon="6.39114">
        <ele>536.6</ele>
        <time>2022-10-17T13:38:33.602Z</time>
      </trkpt>
      <trkpt lat="43.60249" lon="6.39116">
        <ele>536</ele>
        <time>2022-10-17T13:38:36.455Z</time>
      </trkpt>
      <trkpt lat="43.6026" lon="6.39111">
        <ele>535.3</ele>
        <time>2022-10-17T13:38:38.954Z</time>
      </trkpt>
      <trkpt lat="43.60271" lon="6.39108">
        <ele>534.9</ele>
        <time>2022-10-17T13:38:41.967Z</time>
      </trkpt>
      <trkpt lat="43.60281" lon="6.39103">
        <ele>534.3</ele>
        <time>2022-10-17T13:38:44.338Z</time>
      </trkpt>
      <trkpt lat="43.60288" lon="6.39094">
        <ele>532.4</ele>
        <time>2022-10-17T13:38:46.484Z</time>
      </trkpt>
      <trkpt lat="43.60295" lon="6.39082">
        <ele>529.4</ele>
        <time>2022-10-17T13:38:48.988Z</time>
      </trkpt>
      <trkpt lat="43.60301" lon="6.39073">
        <ele>527.7</ele>
        <time>2022-10-17T13:38:50.976Z</time>
      </trkpt>
      <trkpt lat="43.60309" lon="6.39065">
        <ele>525.9</ele>
        <time>2022-10-17T13:38:53.193Z</time>
      </trkpt>
      <trkpt lat="43.60318" lon="6.39057">
        <ele>523.6</ele>
        <time>2022-10-17T13:38:55.595Z</time>
      </trkpt>
      <trkpt lat="43.60326" lon="6.39043">
        <ele>521.7</ele>
        <time>2022-10-17T13:38:58.493Z</time>
      </trkpt>
      <trkpt lat="43.60327" lon="6.39041">
        <ele>521.5</ele>
        <time>2022-10-17T13:38:58.888Z</time>
      </trkpt>
      <trkpt lat="43.60317" lon="6.39044">
        <ele>522.6</ele>
        <time>2022-10-17T13:39:28.150Z</time>
      </trkpt>
      <trkpt lat="43.60301" lon="6.39044">
        <ele>523.9</ele>
        <time>2022-10-17T13:40:04.009Z</time>
      </trkpt>
      <trkpt lat="43.60289" lon="6.39039">
        <ele>524.6</ele>
        <time>2022-10-17T13:40:27.239Z</time>
      </trkpt>
      <trkpt lat="43.60279" lon="6.39033">
        <ele>525.1</ele>
        <time>2022-10-17T13:40:46.158Z</time>
      </trkpt>
      <trkpt lat="43.60271" lon="6.39027">
        <ele>525.3</ele>
        <time>2022-10-17T13:40:57.775Z</time>
      </trkpt>
      <trkpt lat="43.60257" lon="6.39025">
        <ele>525.8</ele>
        <time>2022-10-17T13:41:19.042Z</time>
      </trkpt>
      <trkpt lat="43.60247" lon="6.39022">
        <ele>526.4</ele>
        <time>2022-10-17T13:41:38.374Z</time>
      </trkpt>
      <trkpt lat="43.60237" lon="6.39018">
        <ele>527.3</ele>
        <time>2022-10-17T13:42:02.751Z</time>
      </trkpt>
      <trkpt lat="43.60225" lon="6.39013">
        <ele>528.3</ele>
        <time>2022-10-17T13:42:30.507Z</time>
      </trkpt>
      <trkpt lat="43.60214" lon="6.39007">
        <ele>529.1</ele>
        <time>2022-10-17T13:42:54.341Z</time>
      </trkpt>
      <trkpt lat="43.60211" lon="6.39003">
        <ele>529.3</ele>
        <time>2022-10-17T13:43:01.676Z</time>
      </trkpt>
      <trkpt lat="43.60208" lon="6.39001">
        <ele>529.5</ele>
        <time>2022-10-17T13:43:08.031Z</time>
      </trkpt>
      <trkpt lat="43.60201" lon="6.39009">
        <ele>529.5</ele>
        <time>2022-10-17T13:43:17.293Z</time>
      </trkpt>
      <trkpt lat="43.60205" lon="6.38999">
        <ele>529.7</ele>
        <time>2022-10-17T13:43:28.123Z</time>
      </trkpt>
      <trkpt lat="43.60203" lon="6.38997">
        <ele>529.8</ele>
        <time>2022-10-17T13:43:32.125Z</time>
      </trkpt>
      <trkpt lat="43.60196" lon="6.38995">
        <ele>530.1</ele>
        <time>2022-10-17T13:43:43.961Z</time>
      </trkpt>
      <trkpt lat="43.6019" lon="6.38991">
        <ele>530.6</ele>
        <time>2022-10-17T13:43:58.167Z</time>
      </trkpt>
      <trkpt lat="43.60188" lon="6.38988">
        <ele>530.8</ele>
        <time>2022-10-17T13:44:04.122Z</time>
      </trkpt>
      <trkpt lat="43.60183" lon="6.38985">
        <ele>531.2</ele>
        <time>2022-10-17T13:44:15.595Z</time>
      </trkpt>
      <trkpt lat="43.60173" lon="6.38979">
        <ele>532.1</ele>
        <time>2022-10-17T13:44:40.295Z</time>
      </trkpt>
      <trkpt lat="43.6016" lon="6.38976">
        <ele>533</ele>
        <time>2022-10-17T13:45:06.983Z</time>
      </trkpt>
      <trkpt lat="43.60149" lon="6.38969">
        <ele>533.8</ele>
        <time>2022-10-17T13:45:31.107Z</time>
      </trkpt>
      <trkpt lat="43.60149" lon="6.38959">
        <ele>534.4</ele>
        <time>2022-10-17T13:45:47.554Z</time>
      </trkpt>
      <trkpt lat="43.6015" lon="6.38949">
        <ele>534.9</ele>
        <time>2022-10-17T13:46:02.369Z</time>
      </trkpt>
      <trkpt lat="43.60154" lon="6.3894">
        <ele>535.5</ele>
        <time>2022-10-17T13:46:19.123Z</time>
      </trkpt>
      <trkpt lat="43.60157" lon="6.38937">
        <ele>535.8</ele>
        <time>2022-10-17T13:46:27.407Z</time>
      </trkpt>
      <trkpt lat="43.60162" lon="6.38928">
        <ele>536.3</ele>
        <time>2022-10-17T13:46:43.170Z</time>
      </trkpt>
      <trkpt lat="43.60168" lon="6.3892">
        <ele>536.5</ele>
        <time>2022-10-17T13:46:54.064Z</time>
      </trkpt>
      <trkpt lat="43.60173" lon="6.38913">
        <ele>537.1</ele>
        <time>2022-10-17T13:47:10.429Z</time>
      </trkpt>
      <trkpt lat="43.60177" lon="6.38907">
        <ele>537.8</ele>
        <time>2022-10-17T13:47:29.532Z</time>
      </trkpt>
      <trkpt lat="43.60182" lon="6.38898">
        <ele>538.6</ele>
        <time>2022-10-17T13:47:50.766Z</time>
      </trkpt>
      <trkpt lat="43.60193" lon="6.38889">
        <ele>538.3</ele>
        <time>2022-10-17T13:47:54.674Z</time>
      </trkpt>
      <trkpt lat="43.60199" lon="6.3888">
        <ele>538.7</ele>
        <time>2022-10-17T13:48:09.977Z</time>
      </trkpt>
      <trkpt lat="43.60202" lon="6.38874">
        <ele>539.2</ele>
        <time>2022-10-17T13:48:23.285Z</time>
      </trkpt>
      <trkpt lat="43.602" lon="6.38868">
        <ele>540.3</ele>
        <time>2022-10-17T13:48:42.090Z</time>
      </trkpt>
      <trkpt lat="43.60205" lon="6.38858">
        <ele>541</ele>
        <time>2022-10-17T13:49:01.540Z</time>
      </trkpt>
      <trkpt lat="43.60217" lon="6.3885">
        <ele>540.5</ele>
        <time>2022-10-17T13:49:05.056Z</time>
      </trkpt>
      <trkpt lat="43.60222" lon="6.38835">
        <ele>541.7</ele>
        <time>2022-10-17T13:49:36.862Z</time>
      </trkpt>
      <trkpt lat="43.60234" lon="6.38828">
        <ele>541</ele>
        <time>2022-10-17T13:49:39.831Z</time>
      </trkpt>
      <trkpt lat="43.60242" lon="6.38816">
        <ele>540.7</ele>
        <time>2022-10-17T13:49:43.365Z</time>
      </trkpt>
      <trkpt lat="43.60248" lon="6.38807">
        <ele>540.4</ele>
        <time>2022-10-17T13:49:45.789Z</time>
      </trkpt>
      <trkpt lat="43.60252" lon="6.38795">
        <ele>540.5</ele>
        <time>2022-10-17T13:49:56.572Z</time>
      </trkpt>
      <trkpt lat="43.60255" lon="6.38785">
        <ele>540.6</ele>
        <time>2022-10-17T13:50:05.619Z</time>
      </trkpt>
      <trkpt lat="43.60261" lon="6.3877">
        <ele>540.5</ele>
        <time>2022-10-17T13:50:10.209Z</time>
      </trkpt>
      <trkpt lat="43.60265" lon="6.38754">
        <ele>540.5</ele>
        <time>2022-10-17T13:50:22.703Z</time>
      </trkpt>
      <trkpt lat="43.60269" lon="6.38737">
        <ele>540.2</ele>
        <time>2022-10-17T13:50:26.673Z</time>
      </trkpt>
      <trkpt lat="43.60267" lon="6.38717">
        <ele>541.1</ele>
        <time>2022-10-17T13:50:54.865Z</time>
      </trkpt>
      <trkpt lat="43.60262" lon="6.38698">
        <ele>542.1</ele>
        <time>2022-10-17T13:51:24.514Z</time>
      </trkpt>
      <trkpt lat="43.60254" lon="6.3868">
        <ele>543.4</ele>
        <time>2022-10-17T13:51:59.883Z</time>
      </trkpt>
      <trkpt lat="43.60249" lon="6.38665">
        <ele>544.8</ele>
        <time>2022-10-17T13:52:37.908Z</time>
      </trkpt>
      <trkpt lat="43.60244" lon="6.38649">
        <ele>547.7</ele>
        <time>2022-10-17T13:53:27.521Z</time>
      </trkpt>
      <trkpt lat="43.60246" lon="6.38633">
        <ele>547.3</ele>
        <time>2022-10-17T13:53:30.733Z</time>
      </trkpt>
      <trkpt lat="43.60241" lon="6.38615">
        <ele>550</ele>
        <time>2022-10-17T13:54:25.621Z</time>
      </trkpt>
      <trkpt lat="43.60236" lon="6.38598">
        <ele>551.7</ele>
        <time>2022-10-17T13:55:14.019Z</time>
      </trkpt>
      <trkpt lat="43.60233" lon="6.38583">
        <ele>552.5</ele>
        <time>2022-10-17T13:55:37.307Z</time>
      </trkpt>
      <trkpt lat="43.60228" lon="6.38566">
        <ele>553.7</ele>
        <time>2022-10-17T13:56:09.489Z</time>
      </trkpt>
      <trkpt lat="43.60221" lon="6.38553">
        <ele>555.3</ele>
        <time>2022-10-17T13:56:55.611Z</time>
      </trkpt>
      <trkpt lat="43.60214" lon="6.38539">
        <ele>556.8</ele>
        <time>2022-10-17T13:57:37.052Z</time>
      </trkpt>
      <trkpt lat="43.60205" lon="6.38522">
        <ele>559.3</ele>
        <time>2022-10-17T13:58:37.007Z</time>
      </trkpt>
      <trkpt lat="43.602" lon="6.38504">
        <ele>559.9</ele>
        <time>2022-10-17T13:59:00.476Z</time>
      </trkpt>
      <trkpt lat="43.60192" lon="6.38487">
        <ele>561.5</ele>
        <time>2022-10-17T13:59:43.125Z</time>
      </trkpt>
      <trkpt lat="43.60185" lon="6.38472">
        <ele>562.8</ele>
        <time>2022-10-17T14:00:17.579Z</time>
      </trkpt>
      <trkpt lat="43.60177" lon="6.38458">
        <ele>564.9</ele>
        <time>2022-10-17T14:01:08.353Z</time>
      </trkpt>
      <trkpt lat="43.60167" lon="6.38445">
        <ele>566.1</ele>
        <time>2022-10-17T14:01:40.770Z</time>
      </trkpt>
      <trkpt lat="43.60155" lon="6.38433">
        <ele>567.9</ele>
        <time>2022-10-17T14:02:30.445Z</time>
      </trkpt>
      <trkpt lat="43.60146" lon="6.38422">
        <ele>568.8</ele>
        <time>2022-10-17T14:02:56.039Z</time>
      </trkpt>
      <trkpt lat="43.60138" lon="6.38406">
        <ele>569.9</ele>
        <time>2022-10-17T14:03:26.803Z</time>
      </trkpt>
      <trkpt lat="43.60127" lon="6.38392">
        <ele>573.3</ele>
        <time>2022-10-17T14:04:25.617Z</time>
      </trkpt>
      <trkpt lat="43.60118" lon="6.3838">
        <ele>574.6</ele>
        <time>2022-10-17T14:05:00.093Z</time>
      </trkpt>
      <trkpt lat="43.60111" lon="6.3836">
        <ele>572.1</ele>
        <time>2022-10-17T14:05:03.703Z</time>
      </trkpt>
      <trkpt lat="43.601" lon="6.38341">
        <ele>576</ele>
        <time>2022-10-17T14:06:12.960Z</time>
      </trkpt>
      <trkpt lat="43.60095" lon="6.38327">
        <ele>576.3</ele>
        <time>2022-10-17T14:06:28.183Z</time>
      </trkpt>
      <trkpt lat="43.60091" lon="6.38312">
        <ele>575.8</ele>
        <time>2022-10-17T14:06:31.078Z</time>
      </trkpt>
      <trkpt lat="43.60085" lon="6.38297">
        <ele>575.5</ele>
        <time>2022-10-17T14:06:34.841Z</time>
      </trkpt>
      <trkpt lat="43.60076" lon="6.38282">
        <ele>577</ele>
        <time>2022-10-17T14:07:14.693Z</time>
      </trkpt>
      <trkpt lat="43.60066" lon="6.38266">
        <ele>577.4</ele>
        <time>2022-10-17T14:07:35.203Z</time>
      </trkpt>
      <trkpt lat="43.60059" lon="6.3825">
        <ele>575.9</ele>
        <time>2022-10-17T14:07:38.241Z</time>
      </trkpt>
      <trkpt lat="43.60056" lon="6.38236">
        <ele>575</ele>
        <time>2022-10-17T14:07:40.614Z</time>
      </trkpt>
      <trkpt lat="43.60047" lon="6.38224">
        <ele>576.4</ele>
        <time>2022-10-17T14:08:18.128Z</time>
      </trkpt>
      <trkpt lat="43.60039" lon="6.38211">
        <ele>575.7</ele>
        <time>2022-10-17T14:08:20.876Z</time>
      </trkpt>
      <trkpt lat="43.60029" lon="6.38201">
        <ele>574.8</ele>
        <time>2022-10-17T14:08:23.647Z</time>
      </trkpt>
      <trkpt lat="43.60017" lon="6.38197">
        <ele>576.1</ele>
        <time>2022-10-17T14:08:58.154Z</time>
      </trkpt>
      <trkpt lat="43.60008" lon="6.38195">
        <ele>578</ele>
        <time>2022-10-17T14:09:33.993Z</time>
      </trkpt>
      <trkpt lat="43.59997" lon="6.38187">
        <ele>580</ele>
        <time>2022-10-17T14:10:22.872Z</time>
      </trkpt>
      <trkpt lat="43.59982" lon="6.38171">
        <ele>581.6</ele>
        <time>2022-10-17T14:11:06.489Z</time>
      </trkpt>
      <trkpt lat="43.59972" lon="6.38164">
        <ele>583</ele>
        <time>2022-10-17T14:11:45.714Z</time>
      </trkpt>
      <trkpt lat="43.59958" lon="6.38154">
        <ele>586</ele>
        <time>2022-10-17T14:12:47.684Z</time>
      </trkpt>
      <trkpt lat="43.5995" lon="6.38148">
        <ele>587.3</ele>
        <time>2022-10-17T14:13:23.477Z</time>
      </trkpt>
      <trkpt lat="43.59939" lon="6.38143">
        <ele>589.7</ele>
        <time>2022-10-17T14:14:09.007Z</time>
      </trkpt>
      <trkpt lat="43.5993" lon="6.38136">
        <ele>590.9</ele>
        <time>2022-10-17T14:14:41.509Z</time>
      </trkpt>
      <trkpt lat="43.59917" lon="6.38129">
        <ele>593.1</ele>
        <time>2022-10-17T14:15:36.368Z</time>
      </trkpt>
      <trkpt lat="43.59907" lon="6.38121">
        <ele>594</ele>
        <time>2022-10-17T14:16:01.569Z</time>
      </trkpt>
      <trkpt lat="43.59896" lon="6.38118">
        <ele>595.2</ele>
        <time>2022-10-17T14:16:33.473Z</time>
      </trkpt>
      <trkpt lat="43.59882" lon="6.38111">
        <ele>596</ele>
        <time>2022-10-17T14:17:00.675Z</time>
      </trkpt>
      <trkpt lat="43.59871" lon="6.38106">
        <ele>596.9</ele>
        <time>2022-10-17T14:17:25.896Z</time>
      </trkpt>
      <trkpt lat="43.5986" lon="6.38098">
        <ele>597.2</ele>
        <time>2022-10-17T14:17:42.164Z</time>
      </trkpt>
      <trkpt lat="43.59852" lon="6.38088">
        <ele>596.8</ele>
        <time>2022-10-17T14:17:45.024Z</time>
      </trkpt>
      <trkpt lat="43.5984" lon="6.38078">
        <ele>597.6</ele>
        <time>2022-10-17T14:18:11.219Z</time>
      </trkpt>
      <trkpt lat="43.59838" lon="6.38062">
        <ele>596.9</ele>
        <time>2022-10-17T14:18:13.775Z</time>
      </trkpt>
      <trkpt lat="43.59833" lon="6.38044">
        <ele>596.2</ele>
        <time>2022-10-17T14:18:17.056Z</time>
      </trkpt>
      <trkpt lat="43.59825" lon="6.38036">
        <ele>595.9</ele>
        <time>2022-10-17T14:18:19.858Z</time>
      </trkpt>
      <trkpt lat="43.59815" lon="6.3803">
        <ele>595.8</ele>
        <time>2022-10-17T14:18:23.831Z</time>
      </trkpt>
      <trkpt lat="43.59803" lon="6.38027">
        <ele>595.5</ele>
        <time>2022-10-17T14:18:27.512Z</time>
      </trkpt>
      <trkpt lat="43.59792" lon="6.38029">
        <ele>593.7</ele>
        <time>2022-10-17T14:18:30.002Z</time>
      </trkpt>
      <trkpt lat="43.59782" lon="6.38028">
        <ele>591.8</ele>
        <time>2022-10-17T14:18:32.252Z</time>
      </trkpt>
      <trkpt lat="43.59772" lon="6.38032">
        <ele>591.6</ele>
        <time>2022-10-17T14:18:35.595Z</time>
      </trkpt>
      <trkpt lat="43.59757" lon="6.3804">
        <ele>591.9</ele>
        <time>2022-10-17T14:18:55.364Z</time>
      </trkpt>
      <trkpt lat="43.59746" lon="6.38032">
        <ele>591.4</ele>
        <time>2022-10-17T14:18:58.560Z</time>
      </trkpt>
      <trkpt lat="43.59737" lon="6.38027">
        <ele>592</ele>
        <time>2022-10-17T14:19:17.306Z</time>
      </trkpt>
      <trkpt lat="43.59732" lon="6.38021">
        <ele>593</ele>
        <time>2022-10-17T14:19:43.350Z</time>
      </trkpt>
      <trkpt lat="43.59728" lon="6.38012">
        <ele>594.4</ele>
        <time>2022-10-17T14:20:13.416Z</time>
      </trkpt>
      <trkpt lat="43.59722" lon="6.38005">
        <ele>595.5</ele>
        <time>2022-10-17T14:20:44.298Z</time>
      </trkpt>
      <trkpt lat="43.59715" lon="6.37995">
        <ele>596.3</ele>
        <time>2022-10-17T14:21:06.538Z</time>
      </trkpt>
      <trkpt lat="43.597" lon="6.37988">
        <ele>596.8</ele>
        <time>2022-10-17T14:21:29.245Z</time>
      </trkpt>
      <trkpt lat="43.59696" lon="6.37977">
        <ele>598.3</ele>
        <time>2022-10-17T14:22:04.292Z</time>
      </trkpt>
      <trkpt lat="43.59695" lon="6.37965">
        <ele>599.5</ele>
        <time>2022-10-17T14:22:38.685Z</time>
      </trkpt>
      <trkpt lat="43.59702" lon="6.37949">
        <ele>601.3</ele>
        <time>2022-10-17T14:23:31.549Z</time>
      </trkpt>
      <trkpt lat="43.59707" lon="6.37937">
        <ele>603.7</ele>
        <time>2022-10-17T14:24:10.968Z</time>
      </trkpt>
      <trkpt lat="43.59715" lon="6.37923">
        <ele>606.7</ele>
        <time>2022-10-17T14:25:01.744Z</time>
      </trkpt>
      <trkpt lat="43.59719" lon="6.37913">
        <ele>608.5</ele>
        <time>2022-10-17T14:25:34.272Z</time>
      </trkpt>
      <trkpt lat="43.59722" lon="6.37897">
        <ele>610.8</ele>
        <time>2022-10-17T14:26:21.330Z</time>
      </trkpt>
      <trkpt lat="43.59724" lon="6.37885">
        <ele>612.6</ele>
        <time>2022-10-17T14:26:56.391Z</time>
      </trkpt>
      <trkpt lat="43.59725" lon="6.37873">
        <ele>614.5</ele>
        <time>2022-10-17T14:27:30.783Z</time>
      </trkpt>
      <trkpt lat="43.59723" lon="6.37861">
        <ele>616</ele>
        <time>2022-10-17T14:28:05.844Z</time>
      </trkpt>
      <trkpt lat="43.59723" lon="6.37848">
        <ele>618.8</ele>
        <time>2022-10-17T14:28:42.858Z</time>
      </trkpt>
      <trkpt lat="43.5973" lon="6.37837">
        <ele>621.4</ele>
        <time>2022-10-17T14:29:24.552Z</time>
      </trkpt>
      <trkpt lat="43.59736" lon="6.37826">
        <ele>623.5</ele>
        <time>2022-10-17T14:30:03.762Z</time>
      </trkpt>
      <trkpt lat="43.59733" lon="6.37813">
        <ele>625.3</ele>
        <time>2022-10-17T14:30:42.610Z</time>
      </trkpt>
      <trkpt lat="43.59732" lon="6.37803">
        <ele>626.7</ele>
        <time>2022-10-17T14:31:11.353Z</time>
      </trkpt>
      <trkpt lat="43.5973" lon="6.37791">
        <ele>628.2</ele>
        <time>2022-10-17T14:31:46.413Z</time>
      </trkpt>
      <trkpt lat="43.59734" lon="6.37783">
        <ele>629.3</ele>
        <time>2022-10-17T14:32:14.093Z</time>
      </trkpt>
      <trkpt lat="43.59745" lon="6.37777">
        <ele>630</ele>
        <time>2022-10-17T14:32:36.522Z</time>
      </trkpt>
      <trkpt lat="43.59754" lon="6.37771">
        <ele>630.7</ele>
        <time>2022-10-17T14:32:57.027Z</time>
      </trkpt>
      <trkpt lat="43.59761" lon="6.37766">
        <ele>631.1</ele>
        <time>2022-10-17T14:33:11.143Z</time>
      </trkpt>
      <trkpt lat="43.59771" lon="6.37764">
        <ele>631.1</ele>
        <time>2022-10-17T14:33:21.443Z</time>
      </trkpt>
      <trkpt lat="43.59779" lon="6.37752">
        <ele>631.8</ele>
        <time>2022-10-17T14:33:43.855Z</time>
      </trkpt>
      <trkpt lat="43.59779" lon="6.37746">
        <ele>632.5</ele>
        <time>2022-10-17T14:34:00.939Z</time>
      </trkpt>
      <trkpt lat="43.59776" lon="6.37732">
        <ele>634</ele>
        <time>2022-10-17T14:34:42.509Z</time>
      </trkpt>
      <trkpt lat="43.59764" lon="6.37723">
        <ele>634.9</ele>
        <time>2022-10-17T14:35:09.679Z</time>
      </trkpt>
      <trkpt lat="43.59757" lon="6.37711">
        <ele>636.2</ele>
        <time>2022-10-17T14:35:44.924Z</time>
      </trkpt>
      <trkpt lat="43.5975" lon="6.37698">
        <ele>637.6</ele>
        <time>2022-10-17T14:36:23.240Z</time>
      </trkpt>
      <trkpt lat="43.5974" lon="6.37691">
        <ele>638.2</ele>
        <time>2022-10-17T14:36:43.694Z</time>
      </trkpt>
      <trkpt lat="43.59733" lon="6.37681">
        <ele>638.8</ele>
        <time>2022-10-17T14:37:02.847Z</time>
      </trkpt>
      <trkpt lat="43.59731" lon="6.37668">
        <ele>639.6</ele>
        <time>2022-10-17T14:37:24.755Z</time>
      </trkpt>
      <trkpt lat="43.59735" lon="6.37654">
        <ele>640</ele>
        <time>2022-10-17T14:37:41.490Z</time>
      </trkpt>
      <trkpt lat="43.59737" lon="6.37637">
        <ele>640.5</ele>
        <time>2022-10-17T14:38:01.581Z</time>
      </trkpt>
      <trkpt lat="43.59728" lon="6.37626">
        <ele>641.2</ele>
        <time>2022-10-17T14:38:24.225Z</time>
      </trkpt>
      <trkpt lat="43.5972" lon="6.37615">
        <ele>642.1</ele>
        <time>2022-10-17T14:38:49.213Z</time>
      </trkpt>
      <trkpt lat="43.59709" lon="6.37608">
        <ele>643.1</ele>
        <time>2022-10-17T14:39:16.655Z</time>
      </trkpt>
      <trkpt lat="43.597" lon="6.37597">
        <ele>644.1</ele>
        <time>2022-10-17T14:39:44.032Z</time>
      </trkpt>
      <trkpt lat="43.59691" lon="6.37589">
        <ele>645</ele>
        <time>2022-10-17T14:40:08.595Z</time>
      </trkpt>
      <trkpt lat="43.59682" lon="6.37582">
        <ele>646</ele>
        <time>2022-10-17T14:40:35.149Z</time>
      </trkpt>
      <trkpt lat="43.59672" lon="6.37574">
        <ele>647.3</ele>
        <time>2022-10-17T14:41:10.027Z</time>
      </trkpt>
      <trkpt lat="43.59662" lon="6.37567">
        <ele>648.3</ele>
        <time>2022-10-17T14:41:36.914Z</time>
      </trkpt>
      <trkpt lat="43.59652" lon="6.37557">
        <ele>648.9</ele>
        <time>2022-10-17T14:41:58.719Z</time>
      </trkpt>
      <trkpt lat="43.59643" lon="6.37545">
        <ele>649.1</ele>
        <time>2022-10-17T14:42:13.659Z</time>
      </trkpt>
      <trkpt lat="43.59633" lon="6.37531">
        <ele>649.4</ele>
        <time>2022-10-17T14:42:31.646Z</time>
      </trkpt>
      <trkpt lat="43.59622" lon="6.37528">
        <ele>650.2</ele>
        <time>2022-10-17T14:42:54.880Z</time>
      </trkpt>
      <trkpt lat="43.59611" lon="6.37528">
        <ele>651</ele>
        <time>2022-10-17T14:43:17.915Z</time>
      </trkpt>
      <trkpt lat="43.596" lon="6.37531">
        <ele>651.7</ele>
        <time>2022-10-17T14:43:39.671Z</time>
      </trkpt>
      <trkpt lat="43.59582" lon="6.37526">
        <ele>653.2</ele>
        <time>2022-10-17T14:44:20.973Z</time>
      </trkpt>
      <trkpt lat="43.59566" lon="6.37528">
        <ele>654.9</ele>
        <time>2022-10-17T14:45:06.116Z</time>
      </trkpt>
      <trkpt lat="43.59555" lon="6.37523">
        <ele>656</ele>
        <time>2022-10-17T14:45:35.383Z</time>
      </trkpt>
      <trkpt lat="43.59545" lon="6.37514">
        <ele>656.4</ele>
        <time>2022-10-17T14:45:52.939Z</time>
      </trkpt>
      <trkpt lat="43.59534" lon="6.37508">
        <ele>656.8</ele>
        <time>2022-10-17T14:46:10.405Z</time>
      </trkpt>
      <trkpt lat="43.59522" lon="6.37507">
        <ele>657</ele>
        <time>2022-10-17T14:46:24.862Z</time>
      </trkpt>
      <trkpt lat="43.5951" lon="6.37507">
        <ele>656.8</ele>
        <time>2022-10-17T14:46:28.835Z</time>
      </trkpt>
      <trkpt lat="43.595" lon="6.37502">
        <ele>656.9</ele>
        <time>2022-10-17T14:46:40.697Z</time>
      </trkpt>
      <trkpt lat="43.5949" lon="6.37492">
        <ele>656.8</ele>
        <time>2022-10-17T14:46:45.262Z</time>
      </trkpt>
      <trkpt lat="43.59486" lon="6.37481">
        <ele>656.8</ele>
        <time>2022-10-17T14:46:54.348Z</time>
      </trkpt>
      <trkpt lat="43.59486" lon="6.37462">
        <ele>657</ele>
        <time>2022-10-17T14:47:10.529Z</time>
      </trkpt>
      <trkpt lat="43.59484" lon="6.37442">
        <ele>656.9</ele>
        <time>2022-10-17T14:47:24.019Z</time>
      </trkpt>
      <trkpt lat="43.59485" lon="6.37421">
        <ele>657.3</ele>
        <time>2022-10-17T14:47:44.472Z</time>
      </trkpt>
      <trkpt lat="43.59484" lon="6.37404">
        <ele>657.3</ele>
        <time>2022-10-17T14:47:57.063Z</time>
      </trkpt>
      <trkpt lat="43.59482" lon="6.37386">
        <ele>657</ele>
        <time>2022-10-17T14:48:01.127Z</time>
      </trkpt>
      <trkpt lat="43.59483" lon="6.37371">
        <ele>656.9</ele>
        <time>2022-10-17T14:48:05.103Z</time>
      </trkpt>
      <trkpt lat="43.59475" lon="6.37359">
        <ele>656.2</ele>
        <time>2022-10-17T14:48:07.676Z</time>
      </trkpt>
      <trkpt lat="43.59467" lon="6.37353">
        <ele>655.5</ele>
        <time>2022-10-17T14:48:09.719Z</time>
      </trkpt>
      <trkpt lat="43.59454" lon="6.37348">
        <ele>654.3</ele>
        <time>2022-10-17T14:48:12.748Z</time>
      </trkpt>
      <trkpt lat="43.59442" lon="6.37347">
        <ele>653.4</ele>
        <time>2022-10-17T14:48:15.446Z</time>
      </trkpt>
      <trkpt lat="43.5943" lon="6.37341">
        <ele>652.9</ele>
        <time>2022-10-17T14:48:18.760Z</time>
      </trkpt>
      <trkpt lat="43.59418" lon="6.37341">
        <ele>652.1</ele>
        <time>2022-10-17T14:48:21.227Z</time>
      </trkpt>
      <trkpt lat="43.59408" lon="6.37335">
        <ele>651.7</ele>
        <time>2022-10-17T14:48:24.128Z</time>
      </trkpt>
      <trkpt lat="43.59405" lon="6.37322">
        <ele>651.8</ele>
        <time>2022-10-17T14:48:35.229Z</time>
      </trkpt>
      <trkpt lat="43.59402" lon="6.37306">
        <ele>652</ele>
        <time>2022-10-17T14:48:49.635Z</time>
      </trkpt>
      <trkpt lat="43.59399" lon="6.37292">
        <ele>652.2</ele>
        <time>2022-10-17T14:49:02.672Z</time>
      </trkpt>
      <trkpt lat="43.59392" lon="6.37279">
        <ele>652.1</ele>
        <time>2022-10-17T14:49:06.984Z</time>
      </trkpt>
      <trkpt lat="43.59403" lon="6.37277">
        <ele>652.5</ele>
        <time>2022-10-17T14:49:23.869Z</time>
      </trkpt>
      <trkpt lat="43.59406" lon="6.37263">
        <ele>652.8</ele>
        <time>2022-10-17T14:49:38.432Z</time>
      </trkpt>
      <trkpt lat="43.59404" lon="6.37252">
        <ele>653</ele>
        <time>2022-10-17T14:49:49.208Z</time>
      </trkpt>
      <trkpt lat="43.59409" lon="6.3725">
        <ele>653</ele>
        <time>2022-10-17T14:49:54.514Z</time>
      </trkpt>
      <trkpt lat="43.59412" lon="6.37252">
        <ele>653</ele>
        <time>2022-10-17T14:49:57.909Z</time>
      </trkpt>
      <trkpt lat="43.59405" lon="6.37249">
        <ele>653.1</ele>
        <time>2022-10-17T14:50:06.447Z</time>
      </trkpt>
      <trkpt lat="43.59412" lon="6.37237">
        <ele>653.9</ele>
        <time>2022-10-17T14:50:29.631Z</time>
      </trkpt>
      <trkpt lat="43.59422" lon="6.3723">
        <ele>654.3</ele>
        <time>2022-10-17T14:50:46.607Z</time>
      </trkpt>
      <trkpt lat="43.59426" lon="6.37233">
        <ele>654.2</ele>
        <time>2022-10-17T14:50:48.022Z</time>
      </trkpt>
      <trkpt lat="43.59431" lon="6.37238">
        <ele>653.9</ele>
        <time>2022-10-17T14:50:49.493Z</time>
      </trkpt>
      <trkpt lat="43.59435" lon="6.37243">
        <ele>653.8</ele>
        <time>2022-10-17T14:50:51.239Z</time>
      </trkpt>
      <trkpt lat="43.59435" lon="6.37249">
        <ele>653.7</ele>
        <time>2022-10-17T14:50:52.575Z</time>
      </trkpt>
      <trkpt lat="43.59433" lon="6.37246">
        <ele>653.7</ele>
        <time>2022-10-17T14:50:55.585Z</time>
      </trkpt>
      <trkpt lat="43.59431" lon="6.37242">
        <ele>653.8</ele>
        <time>2022-10-17T14:51:00.435Z</time>
      </trkpt>
      <trkpt lat="43.59427" lon="6.3724">
        <ele>653.8</ele>
        <time>2022-10-17T14:51:04.771Z</time>
      </trkpt>
      <trkpt lat="43.59425" lon="6.37234">
        <ele>654.1</ele>
        <time>2022-10-17T14:51:14.072Z</time>
      </trkpt>
      <trkpt lat="43.59416" lon="6.37235">
        <ele>654.1</ele>
        <time>2022-10-17T14:51:23.275Z</time>
      </trkpt>
      <trkpt lat="43.59408" lon="6.3724">
        <ele>653.7</ele>
        <time>2022-10-17T14:51:25.425Z</time>
      </trkpt>
      <trkpt lat="43.59404" lon="6.37252">
        <ele>653</ele>
        <time>2022-10-17T14:51:27.572Z</time>
      </trkpt>
      <trkpt lat="43.59409" lon="6.37265">
        <ele>652.8</ele>
        <time>2022-10-17T14:51:31.013Z</time>
      </trkpt>
      <trkpt lat="43.59406" lon="6.37275">
        <ele>652.6</ele>
        <time>2022-10-17T14:51:33.355Z</time>
      </trkpt>
      <trkpt lat="43.59397" lon="6.37287">
        <ele>652.2</ele>
        <time>2022-10-17T14:51:36.846Z</time>
      </trkpt>
      <trkpt lat="43.59396" lon="6.37285">
        <ele>652.2</ele>
        <time>2022-10-17T14:51:38.640Z</time>
      </trkpt>
      <trkpt lat="43.59395" lon="6.37278">
        <ele>652.2</ele>
        <time>2022-10-17T14:51:43.907Z</time>
      </trkpt>
      <trkpt lat="43.59391" lon="6.37277">
        <ele>652.1</ele>
        <time>2022-10-17T14:51:45.134Z</time>
      </trkpt>
      <trkpt lat="43.59384" lon="6.37275">
        <ele>651.9</ele>
        <time>2022-10-17T14:51:47.213Z</time>
      </trkpt>
      <trkpt lat="43.5937" lon="6.37273">
        <ele>651.6</ele>
        <time>2022-10-17T14:51:51.623Z</time>
      </trkpt>
      <trkpt lat="43.5936" lon="6.37266">
        <ele>651.7</ele>
        <time>2022-10-17T14:52:04.067Z</time>
      </trkpt>
      <trkpt lat="43.59351" lon="6.37257">
        <ele>651.7</ele>
        <time>2022-10-17T14:52:15.394Z</time>
      </trkpt>
      <trkpt lat="43.59343" lon="6.37242">
        <ele>652.3</ele>
        <time>2022-10-17T14:52:38.599Z</time>
      </trkpt>
      <trkpt lat="43.59333" lon="6.37237">
        <ele>651.9</ele>
        <time>2022-10-17T14:52:41.403Z</time>
      </trkpt>
      <trkpt lat="43.59324" lon="6.37235">
        <ele>651.6</ele>
        <time>2022-10-17T14:52:43.921Z</time>
      </trkpt>
      <trkpt lat="43.59316" lon="6.37244">
        <ele>650.3</ele>
        <time>2022-10-17T14:52:46.237Z</time>
      </trkpt>
      <trkpt lat="43.59301" lon="6.37255">
        <ele>648.8</ele>
        <time>2022-10-17T14:52:50.049Z</time>
      </trkpt>
      <trkpt lat="43.59293" lon="6.37267">
        <ele>647.9</ele>
        <time>2022-10-17T14:52:52.700Z</time>
      </trkpt>
      <trkpt lat="43.5928" lon="6.37283">
        <ele>646.7</ele>
        <time>2022-10-17T14:52:56.608Z</time>
      </trkpt>
      <trkpt lat="43.59272" lon="6.37295">
        <ele>645.7</ele>
        <time>2022-10-17T14:52:59.259Z</time>
      </trkpt>
      <trkpt lat="43.5926" lon="6.37305">
        <ele>645</ele>
        <time>2022-10-17T14:53:02.559Z</time>
      </trkpt>
      <trkpt lat="43.59251" lon="6.37312">
        <ele>644.6</ele>
        <time>2022-10-17T14:53:05.254Z</time>
      </trkpt>
      <trkpt lat="43.59237" lon="6.37318">
        <ele>647</ele>
        <time>2022-10-17T14:54:02.887Z</time>
      </trkpt>
      <trkpt lat="43.59229" lon="6.37329">
        <ele>648.3</ele>
        <time>2022-10-17T14:54:37.994Z</time>
      </trkpt>
      <trkpt lat="43.5922" lon="6.3734">
        <ele>650</ele>
        <time>2022-10-17T14:55:25.250Z</time>
      </trkpt>
      <trkpt lat="43.59214" lon="6.37361">
        <ele>649.4</ele>
        <time>2022-10-17T14:55:29.600Z</time>
      </trkpt>
      <trkpt lat="43.59205" lon="6.37379">
        <ele>648</ele>
        <time>2022-10-17T14:55:33.155Z</time>
      </trkpt>
      <trkpt lat="43.59197" lon="6.37393">
        <ele>646.9</ele>
        <time>2022-10-17T14:55:36.054Z</time>
      </trkpt>
      <trkpt lat="43.59189" lon="6.37393">
        <ele>648.3</ele>
        <time>2022-10-17T14:56:07.507Z</time>
      </trkpt>
      <trkpt lat="43.59188" lon="6.37409">
        <ele>646.3</ele>
        <time>2022-10-17T14:56:10.117Z</time>
      </trkpt>
      <trkpt lat="43.5919" lon="6.37424">
        <ele>643.1</ele>
        <time>2022-10-17T14:56:12.596Z</time>
      </trkpt>
      <trkpt lat="43.59187" lon="6.37437">
        <ele>641.5</ele>
        <time>2022-10-17T14:56:14.814Z</time>
      </trkpt>
      <trkpt lat="43.59182" lon="6.37449">
        <ele>641.5</ele>
        <time>2022-10-17T14:56:25.034Z</time>
      </trkpt>
      <trkpt lat="43.59185" lon="6.37465">
        <ele>638.9</ele>
        <time>2022-10-17T14:56:27.721Z</time>
      </trkpt>
      <trkpt lat="43.59188" lon="6.3748">
        <ele>635.7</ele>
        <time>2022-10-17T14:56:30.250Z</time>
      </trkpt>
      <trkpt lat="43.59185" lon="6.37498">
        <ele>633.2</ele>
        <time>2022-10-17T14:56:33.252Z</time>
      </trkpt>
      <trkpt lat="43.5918" lon="6.37515">
        <ele>631.9</ele>
        <time>2022-10-17T14:56:36.235Z</time>
      </trkpt>
      <trkpt lat="43.59172" lon="6.37525">
        <ele>632.9</ele>
        <time>2022-10-17T14:57:02.932Z</time>
      </trkpt>
      <trkpt lat="43.59167" lon="6.37541">
        <ele>632</ele>
        <time>2022-10-17T14:57:05.764Z</time>
      </trkpt>
      <trkpt lat="43.59162" lon="6.37556">
        <ele>629.6</ele>
        <time>2022-10-17T14:57:08.448Z</time>
      </trkpt>
      <trkpt lat="43.59159" lon="6.37571">
        <ele>627.4</ele>
        <time>2022-10-17T14:57:10.977Z</time>
      </trkpt>
      <trkpt lat="43.59169" lon="6.37582">
        <ele>625.1</ele>
        <time>2022-10-17T14:57:13.847Z</time>
      </trkpt>
      <trkpt lat="43.59175" lon="6.3759">
        <ele>623.2</ele>
        <time>2022-10-17T14:57:15.719Z</time>
      </trkpt>
      <trkpt lat="43.59178" lon="6.37589">
        <ele>623.1</ele>
        <time>2022-10-17T14:57:16.576Z</time>
      </trkpt>
      <trkpt lat="43.5918" lon="6.37607">
        <ele>620.6</ele>
        <time>2022-10-17T14:57:19.536Z</time>
      </trkpt>
      <trkpt lat="43.59179" lon="6.37627">
        <ele>619.7</ele>
        <time>2022-10-17T14:57:22.631Z</time>
      </trkpt>
      <trkpt lat="43.59182" lon="6.37643">
        <ele>618.8</ele>
        <time>2022-10-17T14:57:25.317Z</time>
      </trkpt>
      <trkpt lat="43.59186" lon="6.37659">
        <ele>617.9</ele>
        <time>2022-10-17T14:57:28.069Z</time>
      </trkpt>
      <trkpt lat="43.59188" lon="6.37677">
        <ele>618.1</ele>
        <time>2022-10-17T14:57:43.681Z</time>
      </trkpt>
      <trkpt lat="43.59192" lon="6.37692">
        <ele>618.5</ele>
        <time>2022-10-17T14:58:00.945Z</time>
      </trkpt>
      <trkpt lat="43.59196" lon="6.37706">
        <ele>619</ele>
        <time>2022-10-17T14:58:19.861Z</time>
      </trkpt>
      <trkpt lat="43.59194" lon="6.37722">
        <ele>621</ele>
        <time>2022-10-17T14:59:06.095Z</time>
      </trkpt>
      <trkpt lat="43.59188" lon="6.37739">
        <ele>621.3</ele>
        <time>2022-10-17T14:59:23.560Z</time>
      </trkpt>
      <trkpt lat="43.5918" lon="6.37752">
        <ele>622.1</ele>
        <time>2022-10-17T14:59:47.937Z</time>
      </trkpt>
      <trkpt lat="43.59173" lon="6.37762">
        <ele>622.7</ele>
        <time>2022-10-17T15:00:07.090Z</time>
      </trkpt>
      <trkpt lat="43.59165" lon="6.37773">
        <ele>623.3</ele>
        <time>2022-10-17T15:00:27.636Z</time>
      </trkpt>
      <trkpt lat="43.5916" lon="6.37784">
        <ele>623.1</ele>
        <time>2022-10-17T15:00:30.584Z</time>
      </trkpt>
      <trkpt lat="43.59152" lon="6.37795">
        <ele>623.1</ele>
        <time>2022-10-17T15:00:42.092Z</time>
      </trkpt>
      <trkpt lat="43.59144" lon="6.37808">
        <ele>623.3</ele>
        <time>2022-10-17T15:00:56.879Z</time>
      </trkpt>
      <trkpt lat="43.59135" lon="6.37816">
        <ele>623</ele>
        <time>2022-10-17T15:00:59.991Z</time>
      </trkpt>
      <trkpt lat="43.59122" lon="6.37819">
        <ele>623.1</ele>
        <time>2022-10-17T15:01:14.429Z</time>
      </trkpt>
      <trkpt lat="43.59111" lon="6.37828">
        <ele>623.3</ele>
        <time>2022-10-17T15:01:29.641Z</time>
      </trkpt>
      <trkpt lat="43.59117" lon="6.3783">
        <ele>622.7</ele>
        <time>2022-10-17T15:01:31.027Z</time>
      </trkpt>
      <trkpt lat="43.59113" lon="6.37827">
        <ele>623.1</ele>
        <time>2022-10-17T15:01:41.818Z</time>
      </trkpt>
      <trkpt lat="43.59107" lon="6.37838">
        <ele>623.8</ele>
        <time>2022-10-17T15:02:02.303Z</time>
      </trkpt>
      <trkpt lat="43.59099" lon="6.37855">
        <ele>625.1</ele>
        <time>2022-10-17T15:02:37.313Z</time>
      </trkpt>
      <trkpt lat="43.59087" lon="6.37867">
        <ele>626.2</ele>
        <time>2022-10-17T15:03:08.707Z</time>
      </trkpt>
      <trkpt lat="43.59074" lon="6.37884">
        <ele>625</ele>
        <time>2022-10-17T15:03:12.725Z</time>
      </trkpt>
      <trkpt lat="43.59067" lon="6.37894">
        <ele>624.7</ele>
        <time>2022-10-17T15:03:15.600Z</time>
      </trkpt>
      <trkpt lat="43.59057" lon="6.37903">
        <ele>625.8</ele>
        <time>2022-10-17T15:03:44.993Z</time>
      </trkpt>
      <trkpt lat="43.59048" lon="6.37919">
        <ele>628.6</ele>
        <time>2022-10-17T15:04:42.681Z</time>
      </trkpt>
      <trkpt lat="43.59042" lon="6.37933">
        <ele>628.9</ele>
        <time>2022-10-17T15:04:58.343Z</time>
      </trkpt>
      <trkpt lat="43.59036" lon="6.37948">
        <ele>628.2</ele>
        <time>2022-10-17T15:05:01.110Z</time>
      </trkpt>
      <trkpt lat="43.59026" lon="6.37961">
        <ele>628.3</ele>
        <time>2022-10-17T15:05:16.111Z</time>
      </trkpt>
      <trkpt lat="43.59019" lon="6.37974">
        <ele>628.4</ele>
        <time>2022-10-17T15:05:29.083Z</time>
      </trkpt>
      <trkpt lat="43.59012" lon="6.37987">
        <ele>628.3</ele>
        <time>2022-10-17T15:05:33.396Z</time>
      </trkpt>
      <trkpt lat="43.59007" lon="6.37997">
        <ele>627.9</ele>
        <time>2022-10-17T15:05:35.552Z</time>
      </trkpt>
      <trkpt lat="43.58996" lon="6.38">
        <ele>629.5</ele>
        <time>2022-10-17T15:06:19.635Z</time>
      </trkpt>
      <trkpt lat="43.58979" lon="6.38008">
        <ele>629.4</ele>
        <time>2022-10-17T15:06:36.503Z</time>
      </trkpt>
      <trkpt lat="43.58968" lon="6.38014">
        <ele>629</ele>
        <time>2022-10-17T15:06:39.741Z</time>
      </trkpt>
      <trkpt lat="43.58955" lon="6.38026">
        <ele>627.9</ele>
        <time>2022-10-17T15:06:43.250Z</time>
      </trkpt>
      <trkpt lat="43.58943" lon="6.38034">
        <ele>627.7</ele>
        <time>2022-10-17T15:06:47.753Z</time>
      </trkpt>
      <trkpt lat="43.5893" lon="6.38038">
        <ele>626.7</ele>
        <time>2022-10-17T15:06:50.742Z</time>
      </trkpt>
      <trkpt lat="43.58917" lon="6.38049">
        <ele>624.4</ele>
        <time>2022-10-17T15:06:54.164Z</time>
      </trkpt>
      <trkpt lat="43.58909" lon="6.38063">
        <ele>625</ele>
        <time>2022-10-17T15:07:16.662Z</time>
      </trkpt>
      <trkpt lat="43.58903" lon="6.38075">
        <ele>625.9</ele>
        <time>2022-10-17T15:07:41.131Z</time>
      </trkpt>
      <trkpt lat="43.58894" lon="6.38085">
        <ele>626.8</ele>
        <time>2022-10-17T15:08:06.328Z</time>
      </trkpt>
      <trkpt lat="43.58888" lon="6.38097">
        <ele>625.9</ele>
        <time>2022-10-17T15:08:08.699Z</time>
      </trkpt>
      <trkpt lat="43.5888" lon="6.38107">
        <ele>626.2</ele>
        <time>2022-10-17T15:08:23.457Z</time>
      </trkpt>
      <trkpt lat="43.58873" lon="6.3812">
        <ele>626.6</ele>
        <time>2022-10-17T15:08:40.846Z</time>
      </trkpt>
      <trkpt lat="43.58866" lon="6.38136">
        <ele>626.6</ele>
        <time>2022-10-17T15:08:54.647Z</time>
      </trkpt>
      <trkpt lat="43.58865" lon="6.38151">
        <ele>625.8</ele>
        <time>2022-10-17T15:08:57.095Z</time>
      </trkpt>
      <trkpt lat="43.58867" lon="6.38165">
        <ele>624.9</ele>
        <time>2022-10-17T15:08:59.415Z</time>
      </trkpt>
      <trkpt lat="43.58868" lon="6.38183">
        <ele>624.4</ele>
        <time>2022-10-17T15:09:02.841Z</time>
      </trkpt>
      <trkpt lat="43.58867" lon="6.38196">
        <ele>624</ele>
        <time>2022-10-17T15:09:05.230Z</time>
      </trkpt>
      <trkpt lat="43.58866" lon="6.3821">
        <ele>622.7</ele>
        <time>2022-10-17T15:09:07.517Z</time>
      </trkpt>
      <trkpt lat="43.58866" lon="6.38223">
        <ele>621.4</ele>
        <time>2022-10-17T15:09:09.630Z</time>
      </trkpt>
      <trkpt lat="43.58862" lon="6.38242">
        <ele>619.8</ele>
        <time>2022-10-17T15:09:12.847Z</time>
      </trkpt>
      <trkpt lat="43.5886" lon="6.38257">
        <ele>619.3</ele>
        <time>2022-10-17T15:09:15.558Z</time>
      </trkpt>
      <trkpt lat="43.58853" lon="6.38278">
        <ele>620.1</ele>
        <time>2022-10-17T15:09:44.972Z</time>
      </trkpt>
      <trkpt lat="43.58859" lon="6.38294">
        <ele>622.2</ele>
        <time>2022-10-17T15:10:36.280Z</time>
      </trkpt>
      <trkpt lat="43.58862" lon="6.38307">
        <ele>624.2</ele>
        <time>2022-10-17T15:11:15.133Z</time>
      </trkpt>
      <trkpt lat="43.58851" lon="6.38317">
        <ele>625.2</ele>
        <time>2022-10-17T15:11:43.411Z</time>
      </trkpt>
      <trkpt lat="43.58837" lon="6.3833">
        <ele>626.6</ele>
        <time>2022-10-17T15:12:21.770Z</time>
      </trkpt>
      <trkpt lat="43.58826" lon="6.38342">
        <ele>627.4</ele>
        <time>2022-10-17T15:12:47.970Z</time>
      </trkpt>
      <trkpt lat="43.58815" lon="6.38354">
        <ele>627.8</ele>
        <time>2022-10-17T15:13:07.316Z</time>
      </trkpt>
      <trkpt lat="43.58801" lon="6.38363">
        <ele>628.2</ele>
        <time>2022-10-17T15:13:27.953Z</time>
      </trkpt>
      <trkpt lat="43.58789" lon="6.38368">
        <ele>628.8</ele>
        <time>2022-10-17T15:13:49.986Z</time>
      </trkpt>
      <trkpt lat="43.58778" lon="6.38374">
        <ele>629.3</ele>
        <time>2022-10-17T15:14:09.660Z</time>
      </trkpt>
      <trkpt lat="43.58761" lon="6.3838">
        <ele>630.6</ele>
        <time>2022-10-17T15:14:46.794Z</time>
      </trkpt>
      <trkpt lat="43.58752" lon="6.3838">
        <ele>630.9</ele>
        <time>2022-10-17T15:15:00.000Z</time>
      </trkpt>
    </trkseg>
  </trk>
</gpx>